<?xml version="1.0" encoding="utf-8"?>
<gpx xmlns:xsi="http://www.w3.org/2001/XMLSchema-instance" xmlns:xsd="http://www.w3.org/2001/XMLSchema" version="1.1" creator="Shapelink.com" xmlns="http://www.topografix.com/GPX/1/1" xmlns:gpxtpx="http://www.garmin.com/xmlschemas/TrackPointExtension/v1">
  <metadata>
    <name>Sykling 44.77 km, 2012-04-18</name>
    <desc></desc>
    <author><name>Mikael Blom</name></author> 
    <time>2012-04-18T15:30:46Z</time>
  </metadata>
  <trk>
    <name>Sykling 44.77 km, 2012-04-18</name>
    <trkseg>
      <trkpt lat="59.97883" lon="17.73933">
        <ele>35.2255</ele>
        <time>2012-04-18T15:30:46Z</time>
      </trkpt>
      <trkpt lat="59.9785583" lon="17.7392625">
        <ele>35.7061</ele>
        <time>2012-04-18T15:30:53Z</time>
      </trkpt>
      <trkpt lat="59.9782309" lon="17.7392137">
        <ele>35.2255</ele>
        <time>2012-04-18T15:31:01Z</time>
      </trkpt>
      <trkpt lat="59.9778271" lon="17.7390145">
        <ele>32.8223</ele>
        <time>2012-04-18T15:31:10Z</time>
      </trkpt>
      <trkpt lat="59.9774922" lon="17.7389933">
        <ele>31.8607</ele>
        <time>2012-04-18T15:31:16Z</time>
      </trkpt>
      <trkpt lat="59.9771599" lon="17.7391439">
        <ele>30.4188</ele>
        <time>2012-04-18T15:31:21Z</time>
      </trkpt>
      <trkpt lat="59.9766794" lon="17.7393919">
        <ele>28.9769</ele>
        <time>2012-04-18T15:31:28Z</time>
      </trkpt>
      <trkpt lat="59.9766112" lon="17.739433">
        <ele>28.4962</ele>
        <time>2012-04-18T15:31:29Z</time>
      </trkpt>
      <trkpt lat="59.9763118" lon="17.7398132">
        <ele>28.9769</ele>
        <time>2012-04-18T15:31:34Z</time>
      </trkpt>
      <trkpt lat="59.9762289" lon="17.7400216">
        <ele>29.9381</ele>
        <time>2012-04-18T15:31:36Z</time>
      </trkpt>
      <trkpt lat="59.9759718" lon="17.7408348">
        <ele>31.3801</ele>
        <time>2012-04-18T15:31:44Z</time>
      </trkpt>
      <trkpt lat="59.9757851" lon="17.7415499">
        <ele>32.8223</ele>
        <time>2012-04-18T15:31:51Z</time>
      </trkpt>
      <trkpt lat="59.9755398" lon="17.7425121">
        <ele>34.2642</ele>
        <time>2012-04-18T15:32:01Z</time>
      </trkpt>
      <trkpt lat="59.9753379" lon="17.7433078">
        <ele>34.7449</ele>
        <time>2012-04-18T15:32:10Z</time>
      </trkpt>
      <trkpt lat="59.975178" lon="17.7441665">
        <ele>35.2255</ele>
        <time>2012-04-18T15:32:19Z</time>
      </trkpt>
      <trkpt lat="59.9749817" lon="17.7449254">
        <ele>35.7061</ele>
        <time>2012-04-18T15:32:27Z</time>
      </trkpt>
      <trkpt lat="59.9747204" lon="17.7456383">
        <ele>36.6675</ele>
        <time>2012-04-18T15:32:36Z</time>
      </trkpt>
      <trkpt lat="59.9744859" lon="17.7460825">
        <ele>37.1481</ele>
        <time>2012-04-18T15:32:43Z</time>
      </trkpt>
      <trkpt lat="59.9741766" lon="17.7465271">
        <ele>37.1481</ele>
        <time>2012-04-18T15:32:50Z</time>
      </trkpt>
      <trkpt lat="59.973689" lon="17.7471492">
        <ele>37.1481</ele>
        <time>2012-04-18T15:33:00Z</time>
      </trkpt>
      <trkpt lat="59.9733809" lon="17.7474463">
        <ele>36.6675</ele>
        <time>2012-04-18T15:33:06Z</time>
      </trkpt>
      <trkpt lat="59.9729265" lon="17.7479726">
        <ele>37.1481</ele>
        <time>2012-04-18T15:33:14Z</time>
      </trkpt>
      <trkpt lat="59.972694" lon="17.7483844">
        <ele>38.1094</ele>
        <time>2012-04-18T15:33:19Z</time>
      </trkpt>
      <trkpt lat="59.9724794" lon="17.7488708">
        <ele>38.1094</ele>
        <time>2012-04-18T15:33:25Z</time>
      </trkpt>
      <trkpt lat="59.9721641" lon="17.749585">
        <ele>36.1868</ele>
        <time>2012-04-18T15:33:34Z</time>
      </trkpt>
      <trkpt lat="59.9719994" lon="17.7499813">
        <ele>34.2642</ele>
        <time>2012-04-18T15:33:39Z</time>
      </trkpt>
      <trkpt lat="59.9717223" lon="17.7505533">
        <ele>33.3029</ele>
        <time>2012-04-18T15:33:45Z</time>
      </trkpt>
      <trkpt lat="59.9713292" lon="17.7511208">
        <ele>32.8223</ele>
        <time>2012-04-18T15:33:52Z</time>
      </trkpt>
      <trkpt lat="59.9708575" lon="17.7517198">
        <ele>31.8607</ele>
        <time>2012-04-18T15:34:00Z</time>
      </trkpt>
      <trkpt lat="59.9704403" lon="17.7524082">
        <ele>32.8223</ele>
        <time>2012-04-18T15:34:08Z</time>
      </trkpt>
      <trkpt lat="59.9702439" lon="17.7529708">
        <ele>32.3416</ele>
        <time>2012-04-18T15:34:14Z</time>
      </trkpt>
      <trkpt lat="59.9699144" lon="17.7538751">
        <ele>31.8607</ele>
        <time>2012-04-18T15:34:24Z</time>
      </trkpt>
      <trkpt lat="59.9695751" lon="17.7545926">
        <ele>32.8223</ele>
        <time>2012-04-18T15:34:33Z</time>
      </trkpt>
      <trkpt lat="59.9691901" lon="17.7554054">
        <ele>32.8223</ele>
        <time>2012-04-18T15:34:43Z</time>
      </trkpt>
      <trkpt lat="59.9687754" lon="17.7562728">
        <ele>32.3416</ele>
        <time>2012-04-18T15:34:54Z</time>
      </trkpt>
      <trkpt lat="59.9683682" lon="17.7569621">
        <ele>31.8607</ele>
        <time>2012-04-18T15:35:04Z</time>
      </trkpt>
      <trkpt lat="59.9680413" lon="17.7574185">
        <ele>30.4188</ele>
        <time>2012-04-18T15:35:11Z</time>
      </trkpt>
      <trkpt lat="59.9675658" lon="17.7579767">
        <ele>28.0155</ele>
        <time>2012-04-18T15:35:19Z</time>
      </trkpt>
      <trkpt lat="59.9670405" lon="17.7584823">
        <ele>26.0929</ele>
        <time>2012-04-18T15:35:28Z</time>
      </trkpt>
      <trkpt lat="59.966564" lon="17.7589087">
        <ele>25.6123</ele>
        <time>2012-04-18T15:35:36Z</time>
      </trkpt>
      <trkpt lat="59.9661578" lon="17.759518">
        <ele>25.6123</ele>
        <time>2012-04-18T15:35:43Z</time>
      </trkpt>
      <trkpt lat="59.9656114" lon="17.7604068">
        <ele>28.4962</ele>
        <time>2012-04-18T15:35:53Z</time>
      </trkpt>
      <trkpt lat="59.9652829" lon="17.760988">
        <ele>28.0155</ele>
        <time>2012-04-18T15:36:01Z</time>
      </trkpt>
      <trkpt lat="59.9650364" lon="17.7616587">
        <ele>27.5349</ele>
        <time>2012-04-18T15:36:08Z</time>
      </trkpt>
      <trkpt lat="59.9646933" lon="17.7626353">
        <ele>27.0543</ele>
        <time>2012-04-18T15:36:18Z</time>
      </trkpt>
      <trkpt lat="59.9645031" lon="17.7633388">
        <ele>27.5349</ele>
        <time>2012-04-18T15:36:25Z</time>
      </trkpt>
      <trkpt lat="59.9642277" lon="17.7644415">
        <ele>27.5349</ele>
        <time>2012-04-18T15:36:36Z</time>
      </trkpt>
      <trkpt lat="59.964089" lon="17.7650995">
        <ele>27.5349</ele>
        <time>2012-04-18T15:36:43Z</time>
      </trkpt>
      <trkpt lat="59.9640723" lon="17.7651787">
        <ele>27.5349</ele>
        <time>2012-04-18T15:36:44Z</time>
      </trkpt>
      <trkpt lat="59.9640481" lon="17.7654578">
        <ele>25.1317</ele>
        <time>2012-04-18T15:36:48Z</time>
      </trkpt>
      <trkpt lat="59.9640356" lon="17.7657728">
        <ele>24.651</ele>
        <time>2012-04-18T15:36:53Z</time>
      </trkpt>
      <trkpt lat="59.9640531" lon="17.7659917">
        <ele>26.5736</ele>
        <time>2012-04-18T15:36:56Z</time>
      </trkpt>
      <trkpt lat="59.9640477" lon="17.7664404">
        <ele>26.5736</ele>
        <time>2012-04-18T15:37:02Z</time>
      </trkpt>
      <trkpt lat="59.9640361" lon="17.7669706">
        <ele>27.0543</ele>
        <time>2012-04-18T15:37:08Z</time>
      </trkpt>
      <trkpt lat="59.9639592" lon="17.7675574">
        <ele>28.0155</ele>
        <time>2012-04-18T15:37:14Z</time>
      </trkpt>
      <trkpt lat="59.9637774" lon="17.7683721">
        <ele>27.5349</ele>
        <time>2012-04-18T15:37:22Z</time>
      </trkpt>
      <trkpt lat="59.9634875" lon="17.7693994">
        <ele>28.9769</ele>
        <time>2012-04-18T15:37:32Z</time>
      </trkpt>
      <trkpt lat="59.9634665" lon="17.7694983">
        <ele>28.9769</ele>
        <time>2012-04-18T15:37:33Z</time>
      </trkpt>
      <trkpt lat="59.9634266" lon="17.769907">
        <ele>29.4575</ele>
        <time>2012-04-18T15:37:37Z</time>
      </trkpt>
      <trkpt lat="59.9634734" lon="17.7707267">
        <ele>28.4962</ele>
        <time>2012-04-18T15:37:44Z</time>
      </trkpt>
      <trkpt lat="59.9636274" lon="17.7714982">
        <ele>28.0155</ele>
        <time>2012-04-18T15:37:50Z</time>
      </trkpt>
      <trkpt lat="59.96385" lon="17.772551">
        <ele>27.0543</ele>
        <time>2012-04-18T15:37:58Z</time>
      </trkpt>
      <trkpt lat="59.9638666" lon="17.7727011">
        <ele>27.5349</ele>
        <time>2012-04-18T15:37:59Z</time>
      </trkpt>
      <trkpt lat="59.9638588" lon="17.7732713">
        <ele>27.5349</ele>
        <time>2012-04-18T15:38:03Z</time>
      </trkpt>
      <trkpt lat="59.9637076" lon="17.7741711">
        <ele>27.5349</ele>
        <time>2012-04-18T15:38:10Z</time>
      </trkpt>
      <trkpt lat="59.9635872" lon="17.7749233">
        <ele>26.5736</ele>
        <time>2012-04-18T15:38:16Z</time>
      </trkpt>
      <trkpt lat="59.9633906" lon="17.7756138">
        <ele>26.5736</ele>
        <time>2012-04-18T15:38:22Z</time>
      </trkpt>
      <trkpt lat="59.9630954" lon="17.7765407">
        <ele>27.0543</ele>
        <time>2012-04-18T15:38:31Z</time>
      </trkpt>
      <trkpt lat="59.9628224" lon="17.777311">
        <ele>26.0929</ele>
        <time>2012-04-18T15:38:38Z</time>
      </trkpt>
      <trkpt lat="59.9623198" lon="17.7783693">
        <ele>26.0929</ele>
        <time>2012-04-18T15:38:49Z</time>
      </trkpt>
      <trkpt lat="59.9620251" lon="17.7790546">
        <ele>26.5736</ele>
        <time>2012-04-18T15:38:56Z</time>
      </trkpt>
      <trkpt lat="59.9616765" lon="17.7798326">
        <ele>27.0543</ele>
        <time>2012-04-18T15:39:05Z</time>
      </trkpt>
      <trkpt lat="59.9613505" lon="17.780511">
        <ele>27.0543</ele>
        <time>2012-04-18T15:39:13Z</time>
      </trkpt>
      <trkpt lat="59.9608573" lon="17.7813996">
        <ele>27.0543</ele>
        <time>2012-04-18T15:39:24Z</time>
      </trkpt>
      <trkpt lat="59.9605156" lon="17.782063">
        <ele>27.5349</ele>
        <time>2012-04-18T15:39:32Z</time>
      </trkpt>
      <trkpt lat="59.9602992" lon="17.78272">
        <ele>28.4962</ele>
        <time>2012-04-18T15:39:39Z</time>
      </trkpt>
      <trkpt lat="59.9599608" lon="17.7837348">
        <ele>27.5349</ele>
        <time>2012-04-18T15:39:49Z</time>
      </trkpt>
      <trkpt lat="59.9596963" lon="17.7842906">
        <ele>27.5349</ele>
        <time>2012-04-18T15:39:55Z</time>
      </trkpt>
      <trkpt lat="59.9591895" lon="17.7850507">
        <ele>27.5349</ele>
        <time>2012-04-18T15:40:05Z</time>
      </trkpt>
      <trkpt lat="59.9587793" lon="17.7853893">
        <ele>27.5349</ele>
        <time>2012-04-18T15:40:12Z</time>
      </trkpt>
      <trkpt lat="59.9583264" lon="17.7858554">
        <ele>27.0543</ele>
        <time>2012-04-18T15:40:20Z</time>
      </trkpt>
      <trkpt lat="59.957819" lon="17.7864602">
        <ele>27.0543</ele>
        <time>2012-04-18T15:40:29Z</time>
      </trkpt>
      <trkpt lat="59.9576339" lon="17.7869251">
        <ele>28.0155</ele>
        <time>2012-04-18T15:40:34Z</time>
      </trkpt>
      <trkpt lat="59.9576137" lon="17.7870365">
        <ele>28.0155</ele>
        <time>2012-04-18T15:40:35Z</time>
      </trkpt>
      <trkpt lat="59.9574261" lon="17.7878479">
        <ele>28.0155</ele>
        <time>2012-04-18T15:40:42Z</time>
      </trkpt>
      <trkpt lat="59.9571549" lon="17.7887391">
        <ele>27.5349</ele>
        <time>2012-04-18T15:40:50Z</time>
      </trkpt>
      <trkpt lat="59.9571122" lon="17.788846">
        <ele>27.0543</ele>
        <time>2012-04-18T15:40:51Z</time>
      </trkpt>
      <trkpt lat="59.9567231" lon="17.7894128">
        <ele>27.0543</ele>
        <time>2012-04-18T15:40:58Z</time>
      </trkpt>
      <trkpt lat="59.9566693" lon="17.7894949">
        <ele>27.0543</ele>
        <time>2012-04-18T15:40:59Z</time>
      </trkpt>
      <trkpt lat="59.9565433" lon="17.7899406">
        <ele>27.0543</ele>
        <time>2012-04-18T15:41:03Z</time>
      </trkpt>
      <trkpt lat="59.9565746" lon="17.7903161">
        <ele>27.5349</ele>
        <time>2012-04-18T15:41:06Z</time>
      </trkpt>
      <trkpt lat="59.9567283" lon="17.791085">
        <ele>29.9381</ele>
        <time>2012-04-18T15:41:13Z</time>
      </trkpt>
      <trkpt lat="59.9567213" lon="17.7915754">
        <ele>29.4575</ele>
        <time>2012-04-18T15:41:17Z</time>
      </trkpt>
      <trkpt lat="59.9564514" lon="17.7930907">
        <ele>28.9769</ele>
        <time>2012-04-18T15:41:29Z</time>
      </trkpt>
      <trkpt lat="59.956138" lon="17.7945162">
        <ele>27.5349</ele>
        <time>2012-04-18T15:41:40Z</time>
      </trkpt>
      <trkpt lat="59.9558526" lon="17.7957929">
        <ele>27.5349</ele>
        <time>2012-04-18T15:41:50Z</time>
      </trkpt>
      <trkpt lat="59.9555986" lon="17.7970787">
        <ele>26.5736</ele>
        <time>2012-04-18T15:42:00Z</time>
      </trkpt>
      <trkpt lat="59.9553905" lon="17.7977967">
        <ele>27.5349</ele>
        <time>2012-04-18T15:42:07Z</time>
      </trkpt>
      <trkpt lat="59.9551024" lon="17.7986319">
        <ele>28.4962</ele>
        <time>2012-04-18T15:42:16Z</time>
      </trkpt>
      <trkpt lat="59.9547516" lon="17.7992937">
        <ele>28.9769</ele>
        <time>2012-04-18T15:42:24Z</time>
      </trkpt>
      <trkpt lat="59.9544141" lon="17.8000221">
        <ele>28.9769</ele>
        <time>2012-04-18T15:42:31Z</time>
      </trkpt>
      <trkpt lat="59.9539974" lon="17.8010745">
        <ele>29.9381</ele>
        <time>2012-04-18T15:42:41Z</time>
      </trkpt>
      <trkpt lat="59.953796" lon="17.8016013">
        <ele>29.9381</ele>
        <time>2012-04-18T15:42:47Z</time>
      </trkpt>
      <trkpt lat="59.9537642" lon="17.801691">
        <ele>29.9381</ele>
        <time>2012-04-18T15:42:48Z</time>
      </trkpt>
      <trkpt lat="59.953609" lon="17.802298">
        <ele>31.8607</ele>
        <time>2012-04-18T15:42:55Z</time>
      </trkpt>
      <trkpt lat="59.9534443" lon="17.803052">
        <ele>32.3416</ele>
        <time>2012-04-18T15:43:04Z</time>
      </trkpt>
      <trkpt lat="59.9532612" lon="17.8035799">
        <ele>32.3416</ele>
        <time>2012-04-18T15:43:10Z</time>
      </trkpt>
      <trkpt lat="59.9529412" lon="17.8042952">
        <ele>30.4188</ele>
        <time>2012-04-18T15:43:18Z</time>
      </trkpt>
      <trkpt lat="59.9528096" lon="17.804868">
        <ele>29.9381</ele>
        <time>2012-04-18T15:43:22Z</time>
      </trkpt>
      <trkpt lat="59.9526429" lon="17.8062003">
        <ele>29.4575</ele>
        <time>2012-04-18T15:43:32Z</time>
      </trkpt>
      <trkpt lat="59.9524019" lon="17.8072323">
        <ele>27.5349</ele>
        <time>2012-04-18T15:43:40Z</time>
      </trkpt>
      <trkpt lat="59.9520302" lon="17.8086307">
        <ele>26.0929</ele>
        <time>2012-04-18T15:43:50Z</time>
      </trkpt>
      <trkpt lat="59.951631" lon="17.8101362">
        <ele>25.6123</ele>
        <time>2012-04-18T15:44:01Z</time>
      </trkpt>
      <trkpt lat="59.9514323" lon="17.8111273">
        <ele>25.6123</ele>
        <time>2012-04-18T15:44:08Z</time>
      </trkpt>
      <trkpt lat="59.9513342" lon="17.8120249">
        <ele>25.1317</ele>
        <time>2012-04-18T15:44:14Z</time>
      </trkpt>
      <trkpt lat="59.9513158" lon="17.8133075">
        <ele>24.651</ele>
        <time>2012-04-18T15:44:22Z</time>
      </trkpt>
      <trkpt lat="59.9512917" lon="17.8152651">
        <ele>24.1703</ele>
        <time>2012-04-18T15:44:34Z</time>
      </trkpt>
      <trkpt lat="59.951197" lon="17.8166999">
        <ele>24.1703</ele>
        <time>2012-04-18T15:44:43Z</time>
      </trkpt>
      <trkpt lat="59.9510282" lon="17.8183592">
        <ele>24.651</ele>
        <time>2012-04-18T15:44:54Z</time>
      </trkpt>
      <trkpt lat="59.9509585" lon="17.8194153">
        <ele>24.1703</ele>
        <time>2012-04-18T15:45:01Z</time>
      </trkpt>
      <trkpt lat="59.950901" lon="17.8208848">
        <ele>22.7283</ele>
        <time>2012-04-18T15:45:10Z</time>
      </trkpt>
      <trkpt lat="59.9507219" lon="17.822681">
        <ele>21.767</ele>
        <time>2012-04-18T15:45:21Z</time>
      </trkpt>
      <trkpt lat="59.9505719" lon="17.8239676">
        <ele>21.2864</ele>
        <time>2012-04-18T15:45:29Z</time>
      </trkpt>
      <trkpt lat="59.9503067" lon="17.8252211">
        <ele>20.8057</ele>
        <time>2012-04-18T15:45:37Z</time>
      </trkpt>
      <trkpt lat="59.9500823" lon="17.8263479">
        <ele>20.325</ele>
        <time>2012-04-18T15:45:44Z</time>
      </trkpt>
      <trkpt lat="59.949997" lon="17.8273588">
        <ele>20.325</ele>
        <time>2012-04-18T15:45:50Z</time>
      </trkpt>
      <trkpt lat="59.9500098" lon="17.8284943">
        <ele>20.325</ele>
        <time>2012-04-18T15:45:57Z</time>
      </trkpt>
      <trkpt lat="59.9499933" lon="17.8293167">
        <ele>21.2864</ele>
        <time>2012-04-18T15:46:03Z</time>
      </trkpt>
      <trkpt lat="59.9499719" lon="17.8295431">
        <ele>21.2864</ele>
        <time>2012-04-18T15:46:05Z</time>
      </trkpt>
      <trkpt lat="59.949802" lon="17.8296922">
        <ele>21.767</ele>
        <time>2012-04-18T15:46:09Z</time>
      </trkpt>
      <trkpt lat="59.9497057" lon="17.8295544">
        <ele>21.767</ele>
        <time>2012-04-18T15:46:11Z</time>
      </trkpt>
      <trkpt lat="59.9493018" lon="17.828969">
        <ele>21.2864</ele>
        <time>2012-04-18T15:46:19Z</time>
      </trkpt>
      <trkpt lat="59.9488444" lon="17.8284558">
        <ele>21.767</ele>
        <time>2012-04-18T15:46:27Z</time>
      </trkpt>
      <trkpt lat="59.9482402" lon="17.8278091">
        <ele>22.7283</ele>
        <time>2012-04-18T15:46:38Z</time>
      </trkpt>
      <trkpt lat="59.9476981" lon="17.8272621">
        <ele>22.2476</ele>
        <time>2012-04-18T15:46:48Z</time>
      </trkpt>
      <trkpt lat="59.9472191" lon="17.8267764">
        <ele>22.7283</ele>
        <time>2012-04-18T15:46:57Z</time>
      </trkpt>
      <trkpt lat="59.9466929" lon="17.8262365">
        <ele>23.209</ele>
        <time>2012-04-18T15:47:07Z</time>
      </trkpt>
      <trkpt lat="59.9461331" lon="17.8256627">
        <ele>24.1703</ele>
        <time>2012-04-18T15:47:18Z</time>
      </trkpt>
      <trkpt lat="59.9455794" lon="17.8250978">
        <ele>25.6123</ele>
        <time>2012-04-18T15:47:29Z</time>
      </trkpt>
      <trkpt lat="59.9451135" lon="17.8246196">
        <ele>26.0929</ele>
        <time>2012-04-18T15:47:39Z</time>
      </trkpt>
      <trkpt lat="59.9447195" lon="17.8242076">
        <ele>26.0929</ele>
        <time>2012-04-18T15:47:47Z</time>
      </trkpt>
      <trkpt lat="59.9441911" lon="17.8236149">
        <ele>25.6123</ele>
        <time>2012-04-18T15:47:57Z</time>
      </trkpt>
      <trkpt lat="59.9436594" lon="17.8229581">
        <ele>24.651</ele>
        <time>2012-04-18T15:48:07Z</time>
      </trkpt>
      <trkpt lat="59.9431587" lon="17.8223385">
        <ele>23.6896</ele>
        <time>2012-04-18T15:48:16Z</time>
      </trkpt>
      <trkpt lat="59.9424599" lon="17.8214739">
        <ele>22.2476</ele>
        <time>2012-04-18T15:48:28Z</time>
      </trkpt>
      <trkpt lat="59.9418568" lon="17.8207279">
        <ele>20.8057</ele>
        <time>2012-04-18T15:48:38Z</time>
      </trkpt>
      <trkpt lat="59.9412475" lon="17.819971">
        <ele>21.2864</ele>
        <time>2012-04-18T15:48:49Z</time>
      </trkpt>
      <trkpt lat="59.9408269" lon="17.8194502">
        <ele>22.7283</ele>
        <time>2012-04-18T15:48:58Z</time>
      </trkpt>
      <trkpt lat="59.940451" lon="17.8189814">
        <ele>23.6896</ele>
        <time>2012-04-18T15:49:07Z</time>
      </trkpt>
      <trkpt lat="59.9400874" lon="17.8185376">
        <ele>24.651</ele>
        <time>2012-04-18T15:49:16Z</time>
      </trkpt>
      <trkpt lat="59.9399003" lon="17.8184304">
        <ele>25.1317</ele>
        <time>2012-04-18T15:49:20Z</time>
      </trkpt>
      <trkpt lat="59.9396683" lon="17.8181841">
        <ele>25.1317</ele>
        <time>2012-04-18T15:49:25Z</time>
      </trkpt>
      <trkpt lat="59.9394725" lon="17.8181312">
        <ele>25.1317</ele>
        <time>2012-04-18T15:49:29Z</time>
      </trkpt>
      <trkpt lat="59.9393416" lon="17.8183343">
        <ele>25.1317</ele>
        <time>2012-04-18T15:49:32Z</time>
      </trkpt>
      <trkpt lat="59.9388916" lon="17.8192686">
        <ele>25.6123</ele>
        <time>2012-04-18T15:49:43Z</time>
      </trkpt>
      <trkpt lat="59.9385246" lon="17.8200768">
        <ele>25.1317</ele>
        <time>2012-04-18T15:49:52Z</time>
      </trkpt>
      <trkpt lat="59.9381507" lon="17.8208978">
        <ele>23.6896</ele>
        <time>2012-04-18T15:50:00Z</time>
      </trkpt>
      <trkpt lat="59.9377194" lon="17.8219382">
        <ele>23.209</ele>
        <time>2012-04-18T15:50:10Z</time>
      </trkpt>
      <trkpt lat="59.9374041" lon="17.8228216">
        <ele>22.7283</ele>
        <time>2012-04-18T15:50:18Z</time>
      </trkpt>
      <trkpt lat="59.9369559" lon="17.8239873">
        <ele>22.7283</ele>
        <time>2012-04-18T15:50:29Z</time>
      </trkpt>
      <trkpt lat="59.9366602" lon="17.8245463">
        <ele>22.2476</ele>
        <time>2012-04-18T15:50:35Z</time>
      </trkpt>
      <trkpt lat="59.9366015" lon="17.8246223">
        <ele>22.2476</ele>
        <time>2012-04-18T15:50:36Z</time>
      </trkpt>
      <trkpt lat="59.9361945" lon="17.8248772">
        <ele>21.767</ele>
        <time>2012-04-18T15:50:42Z</time>
      </trkpt>
      <trkpt lat="59.935552" lon="17.8251471">
        <ele>21.767</ele>
        <time>2012-04-18T15:50:51Z</time>
      </trkpt>
      <trkpt lat="59.9349709" lon="17.8253958">
        <ele>21.767</ele>
        <time>2012-04-18T15:51:00Z</time>
      </trkpt>
      <trkpt lat="59.9343255" lon="17.8256862">
        <ele>22.2476</ele>
        <time>2012-04-18T15:51:11Z</time>
      </trkpt>
      <trkpt lat="59.9337361" lon="17.8259452">
        <ele>23.6896</ele>
        <time>2012-04-18T15:51:22Z</time>
      </trkpt>
      <trkpt lat="59.9332915" lon="17.826282">
        <ele>23.6896</ele>
        <time>2012-04-18T15:51:31Z</time>
      </trkpt>
      <trkpt lat="59.9329674" lon="17.8267353">
        <ele>23.209</ele>
        <time>2012-04-18T15:51:38Z</time>
      </trkpt>
      <trkpt lat="59.9325168" lon="17.8275164">
        <ele>22.2476</ele>
        <time>2012-04-18T15:51:48Z</time>
      </trkpt>
      <trkpt lat="59.9321225" lon="17.828323">
        <ele>22.7283</ele>
        <time>2012-04-18T15:51:58Z</time>
      </trkpt>
      <trkpt lat="59.9319142" lon="17.828971">
        <ele>23.6896</ele>
        <time>2012-04-18T15:52:05Z</time>
      </trkpt>
      <trkpt lat="59.9316815" lon="17.8298541">
        <ele>25.1317</ele>
        <time>2012-04-18T15:52:15Z</time>
      </trkpt>
      <trkpt lat="59.9314302" lon="17.8306663">
        <ele>26.0929</ele>
        <time>2012-04-18T15:52:25Z</time>
      </trkpt>
      <trkpt lat="59.9311512" lon="17.8312717">
        <ele>25.6123</ele>
        <time>2012-04-18T15:52:32Z</time>
      </trkpt>
      <trkpt lat="59.9307431" lon="17.8319305">
        <ele>27.0543</ele>
        <time>2012-04-18T15:52:41Z</time>
      </trkpt>
      <trkpt lat="59.9303483" lon="17.8325143">
        <ele>26.0929</ele>
        <time>2012-04-18T15:52:50Z</time>
      </trkpt>
      <trkpt lat="59.9299189" lon="17.8332004">
        <ele>25.6123</ele>
        <time>2012-04-18T15:52:59Z</time>
      </trkpt>
      <trkpt lat="59.9295283" lon="17.8338548">
        <ele>26.5736</ele>
        <time>2012-04-18T15:53:08Z</time>
      </trkpt>
      <trkpt lat="59.9291039" lon="17.8344589">
        <ele>26.0929</ele>
        <time>2012-04-18T15:53:17Z</time>
      </trkpt>
      <trkpt lat="59.9285925" lon="17.8351322">
        <ele>25.6123</ele>
        <time>2012-04-18T15:53:27Z</time>
      </trkpt>
      <trkpt lat="59.9279958" lon="17.8360252">
        <ele>25.6123</ele>
        <time>2012-04-18T15:53:39Z</time>
      </trkpt>
      <trkpt lat="59.9276537" lon="17.8366075">
        <ele>25.6123</ele>
        <time>2012-04-18T15:53:46Z</time>
      </trkpt>
      <trkpt lat="59.9273407" lon="17.8369919">
        <ele>25.6123</ele>
        <time>2012-04-18T15:53:52Z</time>
      </trkpt>
      <trkpt lat="59.9269594" lon="17.8374911">
        <ele>24.651</ele>
        <time>2012-04-18T15:53:59Z</time>
      </trkpt>
      <trkpt lat="59.9266826" lon="17.8377019">
        <ele>24.1703</ele>
        <time>2012-04-18T15:54:04Z</time>
      </trkpt>
      <trkpt lat="59.9266176" lon="17.8377786">
        <ele>24.1703</ele>
        <time>2012-04-18T15:54:05Z</time>
      </trkpt>
      <trkpt lat="59.9263653" lon="17.8381669">
        <ele>21.767</ele>
        <time>2012-04-18T15:54:09Z</time>
      </trkpt>
      <trkpt lat="59.9259264" lon="17.8390915">
        <ele>19.8444</ele>
        <time>2012-04-18T15:54:17Z</time>
      </trkpt>
      <trkpt lat="59.9256473" lon="17.839339">
        <ele>19.3638</ele>
        <time>2012-04-18T15:54:21Z</time>
      </trkpt>
      <trkpt lat="59.9255749" lon="17.8393436">
        <ele>19.3638</ele>
        <time>2012-04-18T15:54:22Z</time>
      </trkpt>
      <trkpt lat="59.9250579" lon="17.8393044">
        <ele>20.325</ele>
        <time>2012-04-18T15:54:30Z</time>
      </trkpt>
      <trkpt lat="59.9244124" lon="17.8393857">
        <ele>19.8444</ele>
        <time>2012-04-18T15:54:40Z</time>
      </trkpt>
      <trkpt lat="59.9238688" lon="17.8395678">
        <ele>19.8444</ele>
        <time>2012-04-18T15:54:48Z</time>
      </trkpt>
      <trkpt lat="59.9230795" lon="17.8399693">
        <ele>19.3638</ele>
        <time>2012-04-18T15:55:00Z</time>
      </trkpt>
      <trkpt lat="59.9223926" lon="17.8403366">
        <ele>19.3638</ele>
        <time>2012-04-18T15:55:11Z</time>
      </trkpt>
      <trkpt lat="59.9218049" lon="17.8405252">
        <ele>18.8831</ele>
        <time>2012-04-18T15:55:20Z</time>
      </trkpt>
      <trkpt lat="59.9211356" lon="17.8406543">
        <ele>19.3638</ele>
        <time>2012-04-18T15:55:30Z</time>
      </trkpt>
      <trkpt lat="59.9206352" lon="17.8406704">
        <ele>20.325</ele>
        <time>2012-04-18T15:55:38Z</time>
      </trkpt>
      <trkpt lat="59.920204" lon="17.8406812">
        <ele>21.2864</ele>
        <time>2012-04-18T15:55:46Z</time>
      </trkpt>
      <trkpt lat="59.919814" lon="17.8406946">
        <ele>20.325</ele>
        <time>2012-04-18T15:55:53Z</time>
      </trkpt>
      <trkpt lat="59.9193996" lon="17.8408916">
        <ele>19.3638</ele>
        <time>2012-04-18T15:56:00Z</time>
      </trkpt>
      <trkpt lat="59.9188125" lon="17.8413018">
        <ele>18.4023</ele>
        <time>2012-04-18T15:56:10Z</time>
      </trkpt>
      <trkpt lat="59.9182207" lon="17.8418181">
        <ele>18.8831</ele>
        <time>2012-04-18T15:56:20Z</time>
      </trkpt>
      <trkpt lat="59.9177499" lon="17.8423055">
        <ele>19.8444</ele>
        <time>2012-04-18T15:56:29Z</time>
      </trkpt>
      <trkpt lat="59.9173934" lon="17.8426244">
        <ele>19.8444</ele>
        <time>2012-04-18T15:56:36Z</time>
      </trkpt>
      <trkpt lat="59.9170567" lon="17.8429054">
        <ele>19.3638</ele>
        <time>2012-04-18T15:56:42Z</time>
      </trkpt>
      <trkpt lat="59.9168257" lon="17.8429003">
        <ele>19.3638</ele>
        <time>2012-04-18T15:56:46Z</time>
      </trkpt>
      <trkpt lat="59.9167235" lon="17.8427585">
        <ele>18.4023</ele>
        <time>2012-04-18T15:56:48Z</time>
      </trkpt>
      <trkpt lat="59.9161888" lon="17.8418908">
        <ele>17.4412</ele>
        <time>2012-04-18T15:56:58Z</time>
      </trkpt>
      <trkpt lat="59.915862" lon="17.8417276">
        <ele>15.5184</ele>
        <time>2012-04-18T15:57:03Z</time>
      </trkpt>
      <trkpt lat="59.9152095" lon="17.8416982">
        <ele>13.1151</ele>
        <time>2012-04-18T15:57:12Z</time>
      </trkpt>
      <trkpt lat="59.9148588" lon="17.8418146">
        <ele>11.6732</ele>
        <time>2012-04-18T15:57:17Z</time>
      </trkpt>
      <trkpt lat="59.914464" lon="17.8421644">
        <ele>10.7118</ele>
        <time>2012-04-18T15:57:23Z</time>
      </trkpt>
      <trkpt lat="59.9138942" lon="17.8427877">
        <ele>11.1925</ele>
        <time>2012-04-18T15:57:32Z</time>
      </trkpt>
      <trkpt lat="59.9134275" lon="17.8431322">
        <ele>11.6732</ele>
        <time>2012-04-18T15:57:39Z</time>
      </trkpt>
      <trkpt lat="59.9129612" lon="17.8432775">
        <ele>13.1151</ele>
        <time>2012-04-18T15:57:46Z</time>
      </trkpt>
      <trkpt lat="59.9126474" lon="17.8434229">
        <ele>15.0377</ele>
        <time>2012-04-18T15:57:52Z</time>
      </trkpt>
      <trkpt lat="59.9123537" lon="17.843713">
        <ele>15.5184</ele>
        <time>2012-04-18T15:57:58Z</time>
      </trkpt>
      <trkpt lat="59.9119972" lon="17.8440641">
        <ele>15.0377</ele>
        <time>2012-04-18T15:58:04Z</time>
      </trkpt>
      <trkpt lat="59.9116225" lon="17.8442052">
        <ele>14.0764</ele>
        <time>2012-04-18T15:58:09Z</time>
      </trkpt>
      <trkpt lat="59.9110944" lon="17.8441843">
        <ele>13.5958</ele>
        <time>2012-04-18T15:58:16Z</time>
      </trkpt>
      <trkpt lat="59.9108317" lon="17.8440264">
        <ele>14.557</ele>
        <time>2012-04-18T15:58:20Z</time>
      </trkpt>
      <trkpt lat="59.9104604" lon="17.8437371">
        <ele>15.0377</ele>
        <time>2012-04-18T15:58:27Z</time>
      </trkpt>
      <trkpt lat="59.9101434" lon="17.8434894">
        <ele>14.557</ele>
        <time>2012-04-18T15:58:34Z</time>
      </trkpt>
      <trkpt lat="59.9097961" lon="17.8431697">
        <ele>14.557</ele>
        <time>2012-04-18T15:58:42Z</time>
      </trkpt>
      <trkpt lat="59.9097095" lon="17.8430592">
        <ele>14.557</ele>
        <time>2012-04-18T15:58:44Z</time>
      </trkpt>
      <trkpt lat="59.9096051" lon="17.842681">
        <ele>15.0377</ele>
        <time>2012-04-18T15:58:48Z</time>
      </trkpt>
      <trkpt lat="59.909606" lon="17.8425653">
        <ele>15.0377</ele>
        <time>2012-04-18T15:58:49Z</time>
      </trkpt>
      <trkpt lat="59.9096609" lon="17.8416737">
        <ele>13.5958</ele>
        <time>2012-04-18T15:58:56Z</time>
      </trkpt>
      <trkpt lat="59.9095857" lon="17.8409687">
        <ele>13.1151</ele>
        <time>2012-04-18T15:59:01Z</time>
      </trkpt>
      <trkpt lat="59.909517" lon="17.8407259">
        <ele>13.1151</ele>
        <time>2012-04-18T15:59:03Z</time>
      </trkpt>
      <trkpt lat="59.9091827" lon="17.839801">
        <ele>15.0377</ele>
        <time>2012-04-18T15:59:12Z</time>
      </trkpt>
      <trkpt lat="59.9090074" lon="17.8393184">
        <ele>16.4797</ele>
        <time>2012-04-18T15:59:18Z</time>
      </trkpt>
      <trkpt lat="59.9089311" lon="17.8391205">
        <ele>16.9604</ele>
        <time>2012-04-18T15:59:21Z</time>
      </trkpt>
      <trkpt lat="59.9087556" lon="17.8388151">
        <ele>16.9604</ele>
        <time>2012-04-18T15:59:27Z</time>
      </trkpt>
      <trkpt lat="59.9085184" lon="17.8386315">
        <ele>17.9218</ele>
        <time>2012-04-18T15:59:34Z</time>
      </trkpt>
      <trkpt lat="59.9082934" lon="17.838609">
        <ele>17.9218</ele>
        <time>2012-04-18T15:59:40Z</time>
      </trkpt>
      <trkpt lat="59.9080561" lon="17.8387418">
        <ele>18.8831</ele>
        <time>2012-04-18T15:59:46Z</time>
      </trkpt>
      <trkpt lat="59.9078434" lon="17.8389609">
        <ele>20.8057</ele>
        <time>2012-04-18T15:59:53Z</time>
      </trkpt>
      <trkpt lat="59.9076102" lon="17.8392661">
        <ele>21.767</ele>
        <time>2012-04-18T16:00:02Z</time>
      </trkpt>
      <trkpt lat="59.9074283" lon="17.8394644">
        <ele>21.2864</ele>
        <time>2012-04-18T16:00:07Z</time>
      </trkpt>
      <trkpt lat="59.9070811" lon="17.8397508">
        <ele>20.325</ele>
        <time>2012-04-18T16:00:13Z</time>
      </trkpt>
      <trkpt lat="59.9065468" lon="17.8401902">
        <ele>19.8444</ele>
        <time>2012-04-18T16:00:21Z</time>
      </trkpt>
      <trkpt lat="59.9061576" lon="17.8406615">
        <ele>18.4023</ele>
        <time>2012-04-18T16:00:27Z</time>
      </trkpt>
      <trkpt lat="59.9057962" lon="17.8410748">
        <ele>17.4412</ele>
        <time>2012-04-18T16:00:32Z</time>
      </trkpt>
      <trkpt lat="59.9053429" lon="17.8412789">
        <ele>18.8831</ele>
        <time>2012-04-18T16:00:38Z</time>
      </trkpt>
      <trkpt lat="59.9050808" lon="17.8413695">
        <ele>21.2864</ele>
        <time>2012-04-18T16:00:43Z</time>
      </trkpt>
      <trkpt lat="59.9048284" lon="17.8415012">
        <ele>24.1703</ele>
        <time>2012-04-18T16:00:49Z</time>
      </trkpt>
      <trkpt lat="59.9046103" lon="17.8416448">
        <ele>25.1317</ele>
        <time>2012-04-18T16:00:55Z</time>
      </trkpt>
      <trkpt lat="59.9043241" lon="17.8418406">
        <ele>24.1703</ele>
        <time>2012-04-18T16:01:01Z</time>
      </trkpt>
      <trkpt lat="59.9039748" lon="17.8419686">
        <ele>22.2476</ele>
        <time>2012-04-18T16:01:08Z</time>
      </trkpt>
      <trkpt lat="59.9038474" lon="17.8419331">
        <ele>23.209</ele>
        <time>2012-04-18T16:01:11Z</time>
      </trkpt>
      <trkpt lat="59.9037708" lon="17.8418819">
        <ele>23.209</ele>
        <time>2012-04-18T16:01:13Z</time>
      </trkpt>
      <trkpt lat="59.9036381" lon="17.8417393">
        <ele>23.6896</ele>
        <time>2012-04-18T16:01:17Z</time>
      </trkpt>
      <trkpt lat="59.9032914" lon="17.8412607">
        <ele>25.6123</ele>
        <time>2012-04-18T16:01:28Z</time>
      </trkpt>
      <trkpt lat="59.9031672" lon="17.8412064">
        <ele>26.0929</ele>
        <time>2012-04-18T16:01:31Z</time>
      </trkpt>
      <trkpt lat="59.9028364" lon="17.8412944">
        <ele>26.5736</ele>
        <time>2012-04-18T16:01:38Z</time>
      </trkpt>
      <trkpt lat="59.9024498" lon="17.8414855">
        <ele>27.5349</ele>
        <time>2012-04-18T16:01:46Z</time>
      </trkpt>
      <trkpt lat="59.9022373" lon="17.841558">
        <ele>28.4962</ele>
        <time>2012-04-18T16:01:51Z</time>
      </trkpt>
      <trkpt lat="59.901943" lon="17.8415239">
        <ele>29.4575</ele>
        <time>2012-04-18T16:01:58Z</time>
      </trkpt>
      <trkpt lat="59.9016396" lon="17.8414696">
        <ele>26.5736</ele>
        <time>2012-04-18T16:02:04Z</time>
      </trkpt>
      <trkpt lat="59.9011318" lon="17.8413884">
        <ele>26.5736</ele>
        <time>2012-04-18T16:02:14Z</time>
      </trkpt>
      <trkpt lat="59.900619" lon="17.8413195">
        <ele>28.4962</ele>
        <time>2012-04-18T16:02:24Z</time>
      </trkpt>
      <trkpt lat="59.9001914" lon="17.841308">
        <ele>30.4188</ele>
        <time>2012-04-18T16:02:33Z</time>
      </trkpt>
      <trkpt lat="59.8998334" lon="17.8413407">
        <ele>34.2642</ele>
        <time>2012-04-18T16:02:41Z</time>
      </trkpt>
      <trkpt lat="59.8997234" lon="17.8413587">
        <ele>35.2255</ele>
        <time>2012-04-18T16:02:44Z</time>
      </trkpt>
      <trkpt lat="59.8994447" lon="17.8415012">
        <ele>38.1094</ele>
        <time>2012-04-18T16:02:53Z</time>
      </trkpt>
      <trkpt lat="59.8992558" lon="17.8417158">
        <ele>37.1481</ele>
        <time>2012-04-18T16:02:59Z</time>
      </trkpt>
      <trkpt lat="59.8990365" lon="17.8418825">
        <ele>37.6287</ele>
        <time>2012-04-18T16:03:05Z</time>
      </trkpt>
      <trkpt lat="59.8987704" lon="17.8420427">
        <ele>37.1481</ele>
        <time>2012-04-18T16:03:11Z</time>
      </trkpt>
      <trkpt lat="59.8983817" lon="17.8421963">
        <ele>36.6675</ele>
        <time>2012-04-18T16:03:18Z</time>
      </trkpt>
      <trkpt lat="59.8982647" lon="17.8422099">
        <ele>35.7061</ele>
        <time>2012-04-18T16:03:20Z</time>
      </trkpt>
      <trkpt lat="59.8978515" lon="17.8422011">
        <ele>35.2255</ele>
        <time>2012-04-18T16:03:27Z</time>
      </trkpt>
      <trkpt lat="59.8977896" lon="17.8422119">
        <ele>34.2642</ele>
        <time>2012-04-18T16:03:28Z</time>
      </trkpt>
      <trkpt lat="59.8975484" lon="17.8423217">
        <ele>32.3416</ele>
        <time>2012-04-18T16:03:32Z</time>
      </trkpt>
      <trkpt lat="59.8971977" lon="17.8426077">
        <ele>30.4188</ele>
        <time>2012-04-18T16:03:38Z</time>
      </trkpt>
      <trkpt lat="59.8970174" lon="17.842767">
        <ele>29.9381</ele>
        <time>2012-04-18T16:03:41Z</time>
      </trkpt>
      <trkpt lat="59.8966813" lon="17.8428207">
        <ele>27.5349</ele>
        <time>2012-04-18T16:03:45Z</time>
      </trkpt>
      <trkpt lat="59.8962175" lon="17.8426776">
        <ele>27.5349</ele>
        <time>2012-04-18T16:03:50Z</time>
      </trkpt>
      <trkpt lat="59.895954" lon="17.8426617">
        <ele>28.4962</ele>
        <time>2012-04-18T16:03:53Z</time>
      </trkpt>
      <trkpt lat="59.8954718" lon="17.8428941">
        <ele>27.5349</ele>
        <time>2012-04-18T16:04:00Z</time>
      </trkpt>
      <trkpt lat="59.8951006" lon="17.8430408">
        <ele>26.0929</ele>
        <time>2012-04-18T16:04:05Z</time>
      </trkpt>
      <trkpt lat="59.8949039" lon="17.8430725">
        <ele>24.1703</ele>
        <time>2012-04-18T16:04:08Z</time>
      </trkpt>
      <trkpt lat="59.894472" lon="17.8430108">
        <ele>25.1317</ele>
        <time>2012-04-18T16:04:14Z</time>
      </trkpt>
      <trkpt lat="59.8940231" lon="17.8429719">
        <ele>25.6123</ele>
        <time>2012-04-18T16:04:21Z</time>
      </trkpt>
      <trkpt lat="59.8936315" lon="17.8429343">
        <ele>25.1317</ele>
        <time>2012-04-18T16:04:27Z</time>
      </trkpt>
      <trkpt lat="59.8931283" lon="17.8427656">
        <ele>26.0929</ele>
        <time>2012-04-18T16:04:35Z</time>
      </trkpt>
      <trkpt lat="59.8926367" lon="17.8425232">
        <ele>30.8995</ele>
        <time>2012-04-18T16:04:44Z</time>
      </trkpt>
      <trkpt lat="59.892292" lon="17.8423578">
        <ele>31.8607</ele>
        <time>2012-04-18T16:04:51Z</time>
      </trkpt>
      <trkpt lat="59.8918388" lon="17.8422024">
        <ele>32.8223</ele>
        <time>2012-04-18T16:05:00Z</time>
      </trkpt>
      <trkpt lat="59.8915082" lon="17.8421213">
        <ele>35.2255</ele>
        <time>2012-04-18T16:05:07Z</time>
      </trkpt>
      <trkpt lat="59.8911815" lon="17.8419168">
        <ele>34.2642</ele>
        <time>2012-04-18T16:05:14Z</time>
      </trkpt>
      <trkpt lat="59.8907562" lon="17.8414399">
        <ele>33.7834</ele>
        <time>2012-04-18T16:05:23Z</time>
      </trkpt>
      <trkpt lat="59.8903729" lon="17.8408588">
        <ele>32.8223</ele>
        <time>2012-04-18T16:05:31Z</time>
      </trkpt>
      <trkpt lat="59.8901391" lon="17.8407481">
        <ele>32.8223</ele>
        <time>2012-04-18T16:05:35Z</time>
      </trkpt>
      <trkpt lat="59.8899844" lon="17.8409158">
        <ele>32.8223</ele>
        <time>2012-04-18T16:05:38Z</time>
      </trkpt>
      <trkpt lat="59.8898578" lon="17.841323">
        <ele>32.8223</ele>
        <time>2012-04-18T16:05:42Z</time>
      </trkpt>
      <trkpt lat="59.8898402" lon="17.8414385">
        <ele>32.8223</ele>
        <time>2012-04-18T16:05:43Z</time>
      </trkpt>
      <trkpt lat="59.8897651" lon="17.842435">
        <ele>30.4188</ele>
        <time>2012-04-18T16:05:51Z</time>
      </trkpt>
      <trkpt lat="59.8897435" lon="17.8427217">
        <ele>29.9381</ele>
        <time>2012-04-18T16:05:53Z</time>
      </trkpt>
      <trkpt lat="59.8896147" lon="17.8432427">
        <ele>28.9769</ele>
        <time>2012-04-18T16:05:57Z</time>
      </trkpt>
      <trkpt lat="59.8894033" lon="17.8433557">
        <ele>28.4962</ele>
        <time>2012-04-18T16:06:00Z</time>
      </trkpt>
      <trkpt lat="59.8891959" lon="17.8432444">
        <ele>28.9769</ele>
        <time>2012-04-18T16:06:03Z</time>
      </trkpt>
      <trkpt lat="59.8890136" lon="17.8430791">
        <ele>28.9769</ele>
        <time>2012-04-18T16:06:06Z</time>
      </trkpt>
      <trkpt lat="59.8886136" lon="17.8430056">
        <ele>28.9769</ele>
        <time>2012-04-18T16:06:12Z</time>
      </trkpt>
      <trkpt lat="59.8882076" lon="17.8428149">
        <ele>28.0155</ele>
        <time>2012-04-18T16:06:18Z</time>
      </trkpt>
      <trkpt lat="59.8876949" lon="17.8422767">
        <ele>28.0155</ele>
        <time>2012-04-18T16:06:26Z</time>
      </trkpt>
      <trkpt lat="59.887396" lon="17.8417196">
        <ele>29.4575</ele>
        <time>2012-04-18T16:06:32Z</time>
      </trkpt>
      <trkpt lat="59.8872747" lon="17.8413992">
        <ele>28.9769</ele>
        <time>2012-04-18T16:06:35Z</time>
      </trkpt>
      <trkpt lat="59.8869711" lon="17.8410182">
        <ele>28.9769</ele>
        <time>2012-04-18T16:06:40Z</time>
      </trkpt>
      <trkpt lat="59.8866752" lon="17.8410122">
        <ele>29.4575</ele>
        <time>2012-04-18T16:06:44Z</time>
      </trkpt>
      <trkpt lat="59.8866023" lon="17.8410379">
        <ele>29.9381</ele>
        <time>2012-04-18T16:06:45Z</time>
      </trkpt>
      <trkpt lat="59.8862014" lon="17.8412449">
        <ele>30.8995</ele>
        <time>2012-04-18T16:06:51Z</time>
      </trkpt>
      <trkpt lat="59.8860038" lon="17.8413334">
        <ele>30.4188</ele>
        <time>2012-04-18T16:06:55Z</time>
      </trkpt>
      <trkpt lat="59.8857404" lon="17.8413738">
        <ele>31.8607</ele>
        <time>2012-04-18T16:06:59Z</time>
      </trkpt>
      <trkpt lat="59.88533" lon="17.8413957">
        <ele>32.3416</ele>
        <time>2012-04-18T16:07:05Z</time>
      </trkpt>
      <trkpt lat="59.8851533" lon="17.841422">
        <ele>30.4188</ele>
        <time>2012-04-18T16:07:08Z</time>
      </trkpt>
      <trkpt lat="59.8846858" lon="17.8412703">
        <ele>28.9769</ele>
        <time>2012-04-18T16:07:14Z</time>
      </trkpt>
      <trkpt lat="59.884321" lon="17.840988">
        <ele>28.0155</ele>
        <time>2012-04-18T16:07:20Z</time>
      </trkpt>
      <trkpt lat="59.8839129" lon="17.8404943">
        <ele>27.5349</ele>
        <time>2012-04-18T16:07:28Z</time>
      </trkpt>
      <trkpt lat="59.8835348" lon="17.8399854">
        <ele>28.0155</ele>
        <time>2012-04-18T16:07:37Z</time>
      </trkpt>
      <trkpt lat="59.8832788" lon="17.8396203">
        <ele>28.0155</ele>
        <time>2012-04-18T16:07:44Z</time>
      </trkpt>
      <trkpt lat="59.883075" lon="17.839355">
        <ele>28.9769</ele>
        <time>2012-04-18T16:07:50Z</time>
      </trkpt>
      <trkpt lat="59.8828426" lon="17.8390795">
        <ele>30.4188</ele>
        <time>2012-04-18T16:07:57Z</time>
      </trkpt>
      <trkpt lat="59.8826732" lon="17.8389731">
        <ele>31.3801</ele>
        <time>2012-04-18T16:08:02Z</time>
      </trkpt>
      <trkpt lat="59.8824199" lon="17.8389043">
        <ele>29.9381</ele>
        <time>2012-04-18T16:08:07Z</time>
      </trkpt>
      <trkpt lat="59.8823553" lon="17.838889">
        <ele>29.4575</ele>
        <time>2012-04-18T16:08:08Z</time>
      </trkpt>
      <trkpt lat="59.88216" lon="17.8387737">
        <ele>28.0155</ele>
        <time>2012-04-18T16:08:11Z</time>
      </trkpt>
      <trkpt lat="59.8817874" lon="17.8383148">
        <ele>26.5736</ele>
        <time>2012-04-18T16:08:17Z</time>
      </trkpt>
      <trkpt lat="59.8813606" lon="17.8376592">
        <ele>25.6123</ele>
        <time>2012-04-18T16:08:25Z</time>
      </trkpt>
      <trkpt lat="59.8811095" lon="17.8372825">
        <ele>26.0929</ele>
        <time>2012-04-18T16:08:30Z</time>
      </trkpt>
      <trkpt lat="59.8806758" lon="17.8365823">
        <ele>27.0543</ele>
        <time>2012-04-18T16:08:39Z</time>
      </trkpt>
      <trkpt lat="59.8802795" lon="17.8360954">
        <ele>27.0543</ele>
        <time>2012-04-18T16:08:46Z</time>
      </trkpt>
      <trkpt lat="59.8799499" lon="17.8358104">
        <ele>28.4962</ele>
        <time>2012-04-18T16:08:52Z</time>
      </trkpt>
      <trkpt lat="59.8796175" lon="17.8357395">
        <ele>28.4962</ele>
        <time>2012-04-18T16:08:58Z</time>
      </trkpt>
      <trkpt lat="59.8792042" lon="17.8356953">
        <ele>28.9769</ele>
        <time>2012-04-18T16:09:04Z</time>
      </trkpt>
      <trkpt lat="59.8789156" lon="17.8356216">
        <ele>29.4575</ele>
        <time>2012-04-18T16:09:09Z</time>
      </trkpt>
      <trkpt lat="59.8785638" lon="17.8354053">
        <ele>28.0155</ele>
        <time>2012-04-18T16:09:15Z</time>
      </trkpt>
      <trkpt lat="59.8780282" lon="17.8349111">
        <ele>28.0155</ele>
        <time>2012-04-18T16:09:24Z</time>
      </trkpt>
      <trkpt lat="59.8777237" lon="17.8345573">
        <ele>28.9769</ele>
        <time>2012-04-18T16:09:30Z</time>
      </trkpt>
      <trkpt lat="59.8772541" lon="17.8339641">
        <ele>28.9769</ele>
        <time>2012-04-18T16:09:39Z</time>
      </trkpt>
      <trkpt lat="59.876827" lon="17.8335725">
        <ele>29.4575</ele>
        <time>2012-04-18T16:09:47Z</time>
      </trkpt>
      <trkpt lat="59.8764955" lon="17.8333634">
        <ele>30.8995</ele>
        <time>2012-04-18T16:09:54Z</time>
      </trkpt>
      <trkpt lat="59.8761715" lon="17.8331586">
        <ele>29.9381</ele>
        <time>2012-04-18T16:10:00Z</time>
      </trkpt>
      <trkpt lat="59.8757639" lon="17.8327645">
        <ele>29.4575</ele>
        <time>2012-04-18T16:10:07Z</time>
      </trkpt>
      <trkpt lat="59.8753741" lon="17.8324365">
        <ele>28.9769</ele>
        <time>2012-04-18T16:10:14Z</time>
      </trkpt>
      <trkpt lat="59.8749082" lon="17.8322861">
        <ele>28.4962</ele>
        <time>2012-04-18T16:10:21Z</time>
      </trkpt>
      <trkpt lat="59.8745149" lon="17.8321713">
        <ele>29.4575</ele>
        <time>2012-04-18T16:10:27Z</time>
      </trkpt>
      <trkpt lat="59.8742041" lon="17.8319246">
        <ele>29.9381</ele>
        <time>2012-04-18T16:10:33Z</time>
      </trkpt>
      <trkpt lat="59.8738811" lon="17.8315146">
        <ele>30.4188</ele>
        <time>2012-04-18T16:10:40Z</time>
      </trkpt>
      <trkpt lat="59.8734956" lon="17.8310403">
        <ele>28.4962</ele>
        <time>2012-04-18T16:10:47Z</time>
      </trkpt>
      <trkpt lat="59.8730652" lon="17.8306941">
        <ele>27.0543</ele>
        <time>2012-04-18T16:10:54Z</time>
      </trkpt>
      <trkpt lat="59.8725431" lon="17.8304469">
        <ele>24.651</ele>
        <time>2012-04-18T16:11:02Z</time>
      </trkpt>
      <trkpt lat="59.871895" lon="17.8298735">
        <ele>21.767</ele>
        <time>2012-04-18T16:11:11Z</time>
      </trkpt>
      <trkpt lat="59.8710755" lon="17.8291024">
        <ele>19.8444</ele>
        <time>2012-04-18T16:11:22Z</time>
      </trkpt>
      <trkpt lat="59.8705653" lon="17.8286075">
        <ele>19.3638</ele>
        <time>2012-04-18T16:11:30Z</time>
      </trkpt>
      <trkpt lat="59.8701989" lon="17.8282531">
        <ele>20.325</ele>
        <time>2012-04-18T16:11:37Z</time>
      </trkpt>
      <trkpt lat="59.8697971" lon="17.8278051">
        <ele>21.2864</ele>
        <time>2012-04-18T16:11:46Z</time>
      </trkpt>
      <trkpt lat="59.8695552" lon="17.8274098">
        <ele>22.7283</ele>
        <time>2012-04-18T16:11:53Z</time>
      </trkpt>
      <trkpt lat="59.8691812" lon="17.8267676">
        <ele>22.2476</ele>
        <time>2012-04-18T16:12:04Z</time>
      </trkpt>
      <trkpt lat="59.8688297" lon="17.8261349">
        <ele>22.7283</ele>
        <time>2012-04-18T16:12:13Z</time>
      </trkpt>
      <trkpt lat="59.8685155" lon="17.8256539">
        <ele>23.6896</ele>
        <time>2012-04-18T16:12:21Z</time>
      </trkpt>
      <trkpt lat="59.8681917" lon="17.8255615">
        <ele>23.209</ele>
        <time>2012-04-18T16:12:27Z</time>
      </trkpt>
      <trkpt lat="59.8680662" lon="17.8256071">
        <ele>22.7283</ele>
        <time>2012-04-18T16:12:29Z</time>
      </trkpt>
      <trkpt lat="59.867478" lon="17.8260447">
        <ele>18.8831</ele>
        <time>2012-04-18T16:12:38Z</time>
      </trkpt>
      <trkpt lat="59.8668811" lon="17.8264371">
        <ele>15.5184</ele>
        <time>2012-04-18T16:12:46Z</time>
      </trkpt>
      <trkpt lat="59.8663514" lon="17.8266671">
        <ele>14.557</ele>
        <time>2012-04-18T16:12:53Z</time>
      </trkpt>
      <trkpt lat="59.8660125" lon="17.8266578">
        <ele>14.0764</ele>
        <time>2012-04-18T16:12:58Z</time>
      </trkpt>
      <trkpt lat="59.8655239" lon="17.826549">
        <ele>14.0764</ele>
        <time>2012-04-18T16:13:05Z</time>
      </trkpt>
      <trkpt lat="59.8652624" lon="17.8264939">
        <ele>14.557</ele>
        <time>2012-04-18T16:13:09Z</time>
      </trkpt>
      <trkpt lat="59.8650002" lon="17.8262437">
        <ele>15.0377</ele>
        <time>2012-04-18T16:13:14Z</time>
      </trkpt>
      <trkpt lat="59.8646722" lon="17.8255895">
        <ele>13.1151</ele>
        <time>2012-04-18T16:13:21Z</time>
      </trkpt>
      <trkpt lat="59.8641989" lon="17.8245526">
        <ele>10.7118</ele>
        <time>2012-04-18T16:13:30Z</time>
      </trkpt>
      <trkpt lat="59.8638788" lon="17.8238519">
        <ele>10.2312</ele>
        <time>2012-04-18T16:13:37Z</time>
      </trkpt>
      <trkpt lat="59.8635535" lon="17.823108">
        <ele>10.7118</ele>
        <time>2012-04-18T16:13:45Z</time>
      </trkpt>
      <trkpt lat="59.8632259" lon="17.8222478">
        <ele>11.6732</ele>
        <time>2012-04-18T16:13:55Z</time>
      </trkpt>
      <trkpt lat="59.8630039" lon="17.8215577">
        <ele>13.5958</ele>
        <time>2012-04-18T16:14:03Z</time>
      </trkpt>
      <trkpt lat="59.862784" lon="17.8208184">
        <ele>16.4797</ele>
        <time>2012-04-18T16:14:12Z</time>
      </trkpt>
      <trkpt lat="59.8626703" lon="17.8203707">
        <ele>18.4023</ele>
        <time>2012-04-18T16:14:18Z</time>
      </trkpt>
      <trkpt lat="59.86255" lon="17.8197265">
        <ele>20.8057</ele>
        <time>2012-04-18T16:14:26Z</time>
      </trkpt>
      <trkpt lat="59.8624399" lon="17.8192095">
        <ele>21.767</ele>
        <time>2012-04-18T16:14:33Z</time>
      </trkpt>
      <trkpt lat="59.8623253" lon="17.8189515">
        <ele>21.767</ele>
        <time>2012-04-18T16:14:37Z</time>
      </trkpt>
      <trkpt lat="59.8620513" lon="17.818674">
        <ele>22.2476</ele>
        <time>2012-04-18T16:14:44Z</time>
      </trkpt>
      <trkpt lat="59.8618098" lon="17.8185087">
        <ele>24.1703</ele>
        <time>2012-04-18T16:14:51Z</time>
      </trkpt>
      <trkpt lat="59.8616199" lon="17.818389">
        <ele>24.1703</ele>
        <time>2012-04-18T16:14:57Z</time>
      </trkpt>
      <trkpt lat="59.8614074" lon="17.8182427">
        <ele>22.7283</ele>
        <time>2012-04-18T16:15:02Z</time>
      </trkpt>
      <trkpt lat="59.860994" lon="17.817837">
        <ele>22.2476</ele>
        <time>2012-04-18T16:15:10Z</time>
      </trkpt>
      <trkpt lat="59.8606256" lon="17.817354">
        <ele>20.325</ele>
        <time>2012-04-18T16:15:17Z</time>
      </trkpt>
      <trkpt lat="59.8602033" lon="17.8167952">
        <ele>19.8444</ele>
        <time>2012-04-18T16:15:25Z</time>
      </trkpt>
      <trkpt lat="59.8597808" lon="17.8163487">
        <ele>19.8444</ele>
        <time>2012-04-18T16:15:33Z</time>
      </trkpt>
      <trkpt lat="59.8591603" lon="17.8158265">
        <ele>19.8444</ele>
        <time>2012-04-18T16:15:44Z</time>
      </trkpt>
      <trkpt lat="59.8587096" lon="17.8154591">
        <ele>20.325</ele>
        <time>2012-04-18T16:15:52Z</time>
      </trkpt>
      <trkpt lat="59.8585496" lon="17.8153311">
        <ele>20.8057</ele>
        <time>2012-04-18T16:15:55Z</time>
      </trkpt>
      <trkpt lat="59.8582899" lon="17.8151362">
        <ele>22.7283</ele>
        <time>2012-04-18T16:16:01Z</time>
      </trkpt>
      <trkpt lat="59.8579729" lon="17.8149299">
        <ele>20.8057</ele>
        <time>2012-04-18T16:16:08Z</time>
      </trkpt>
      <trkpt lat="59.8577871" lon="17.8147967">
        <ele>19.8444</ele>
        <time>2012-04-18T16:16:12Z</time>
      </trkpt>
      <trkpt lat="59.8576951" lon="17.814704">
        <ele>19.3638</ele>
        <time>2012-04-18T16:16:16Z</time>
      </trkpt>
      <trkpt lat="59.8575222" lon="17.8145098">
        <ele>18.4023</ele>
        <time>2012-04-18T16:16:21Z</time>
      </trkpt>
      <trkpt lat="59.8575005" lon="17.8140771">
        <ele>17.9218</ele>
        <time>2012-04-18T16:16:25Z</time>
      </trkpt>
      <trkpt lat="59.857512" lon="17.813957">
        <ele>17.9218</ele>
        <time>2012-04-18T16:16:26Z</time>
      </trkpt>
      <trkpt lat="59.8574776" lon="17.8134665">
        <ele>17.9218</ele>
        <time>2012-04-18T16:16:30Z</time>
      </trkpt>
      <trkpt lat="59.8574411" lon="17.8133558">
        <ele>17.9218</ele>
        <time>2012-04-18T16:16:31Z</time>
      </trkpt>
      <trkpt lat="59.8572301" lon="17.8127946">
        <ele>19.3638</ele>
        <time>2012-04-18T16:16:37Z</time>
      </trkpt>
      <trkpt lat="59.8570457" lon="17.8120844">
        <ele>18.8831</ele>
        <time>2012-04-18T16:16:44Z</time>
      </trkpt>
      <trkpt lat="59.8569468" lon="17.8113691">
        <ele>18.8831</ele>
        <time>2012-04-18T16:16:50Z</time>
      </trkpt>
      <trkpt lat="59.8569566" lon="17.8106879">
        <ele>19.8444</ele>
        <time>2012-04-18T16:16:56Z</time>
      </trkpt>
      <trkpt lat="59.8569463" lon="17.8103185">
        <ele>19.3638</ele>
        <time>2012-04-18T16:16:59Z</time>
      </trkpt>
      <trkpt lat="59.8568011" lon="17.8097606">
        <ele>18.8831</ele>
        <time>2012-04-18T16:17:04Z</time>
      </trkpt>
      <trkpt lat="59.8567558" lon="17.8096719">
        <ele>18.8831</ele>
        <time>2012-04-18T16:17:05Z</time>
      </trkpt>
      <trkpt lat="59.8564768" lon="17.8091598">
        <ele>19.3638</ele>
        <time>2012-04-18T16:17:11Z</time>
      </trkpt>
      <trkpt lat="59.8563716" lon="17.8087216">
        <ele>19.8444</ele>
        <time>2012-04-18T16:17:15Z</time>
      </trkpt>
      <trkpt lat="59.8564043" lon="17.8082759">
        <ele>19.8444</ele>
        <time>2012-04-18T16:17:19Z</time>
      </trkpt>
      <trkpt lat="59.8564288" lon="17.808166">
        <ele>19.3638</ele>
        <time>2012-04-18T16:17:20Z</time>
      </trkpt>
      <trkpt lat="59.8566803" lon="17.8071266">
        <ele>17.9218</ele>
        <time>2012-04-18T16:17:29Z</time>
      </trkpt>
      <trkpt lat="59.8567071" lon="17.8070104">
        <ele>17.9218</ele>
        <time>2012-04-18T16:17:30Z</time>
      </trkpt>
      <trkpt lat="59.8567086" lon="17.8065236">
        <ele>16.9604</ele>
        <time>2012-04-18T16:17:34Z</time>
      </trkpt>
      <trkpt lat="59.8566804" lon="17.8064028">
        <ele>16.4797</ele>
        <time>2012-04-18T16:17:35Z</time>
      </trkpt>
      <trkpt lat="59.8566768" lon="17.8058295">
        <ele>15.0377</ele>
        <time>2012-04-18T16:17:40Z</time>
      </trkpt>
      <trkpt lat="59.8568412" lon="17.8055218">
        <ele>13.5958</ele>
        <time>2012-04-18T16:17:44Z</time>
      </trkpt>
      <trkpt lat="59.8568454" lon="17.8052047">
        <ele>15.5184</ele>
        <time>2012-04-18T16:17:47Z</time>
      </trkpt>
      <trkpt lat="59.8567642" lon="17.8050717">
        <ele>15.999</ele>
        <time>2012-04-18T16:17:49Z</time>
      </trkpt>
      <trkpt lat="59.8565408" lon="17.8045754">
        <ele>17.4412</ele>
        <time>2012-04-18T16:17:56Z</time>
      </trkpt>
      <trkpt lat="59.8564018" lon="17.8041252">
        <ele>19.3638</ele>
        <time>2012-04-18T16:18:02Z</time>
      </trkpt>
      <trkpt lat="59.8561906" lon="17.8034882">
        <ele>21.2864</ele>
        <time>2012-04-18T16:18:11Z</time>
      </trkpt>
      <trkpt lat="59.856152" lon="17.8033516">
        <ele>21.2864</ele>
        <time>2012-04-18T16:18:13Z</time>
      </trkpt>
      <trkpt lat="59.8560193" lon="17.8030519">
        <ele>22.2476</ele>
        <time>2012-04-18T16:18:18Z</time>
      </trkpt>
      <trkpt lat="59.8558751" lon="17.8025829">
        <ele>24.651</ele>
        <time>2012-04-18T16:18:25Z</time>
      </trkpt>
      <trkpt lat="59.8557621" lon="17.8021414">
        <ele>27.0543</ele>
        <time>2012-04-18T16:18:31Z</time>
      </trkpt>
      <trkpt lat="59.8557041" lon="17.8018288">
        <ele>27.5349</ele>
        <time>2012-04-18T16:18:35Z</time>
      </trkpt>
      <trkpt lat="59.8555553" lon="17.8012798">
        <ele>28.0155</ele>
        <time>2012-04-18T16:18:44Z</time>
      </trkpt>
      <trkpt lat="59.8553579" lon="17.8005499">
        <ele>28.4962</ele>
        <time>2012-04-18T16:18:55Z</time>
      </trkpt>
      <trkpt lat="59.8551892" lon="17.799948">
        <ele>29.4575</ele>
        <time>2012-04-18T16:19:03Z</time>
      </trkpt>
      <trkpt lat="59.8550193" lon="17.7993699">
        <ele>29.9381</ele>
        <time>2012-04-18T16:19:10Z</time>
      </trkpt>
      <trkpt lat="59.8548697" lon="17.7988232">
        <ele>28.9769</ele>
        <time>2012-04-18T16:19:16Z</time>
      </trkpt>
      <trkpt lat="59.8546446" lon="17.7979297">
        <ele>28.0155</ele>
        <time>2012-04-18T16:19:25Z</time>
      </trkpt>
      <trkpt lat="59.85445" lon="17.7971284">
        <ele>28.9769</ele>
        <time>2012-04-18T16:19:33Z</time>
      </trkpt>
      <trkpt lat="59.8542624" lon="17.7965145">
        <ele>30.4188</ele>
        <time>2012-04-18T16:19:40Z</time>
      </trkpt>
      <trkpt lat="59.8541051" lon="17.795891">
        <ele>33.3029</ele>
        <time>2012-04-18T16:19:47Z</time>
      </trkpt>
      <trkpt lat="59.8538712" lon="17.795043">
        <ele>34.7449</ele>
        <time>2012-04-18T16:19:56Z</time>
      </trkpt>
      <trkpt lat="59.8536528" lon="17.7943411">
        <ele>35.7061</ele>
        <time>2012-04-18T16:20:03Z</time>
      </trkpt>
      <trkpt lat="59.8534083" lon="17.7935963">
        <ele>36.1868</ele>
        <time>2012-04-18T16:20:10Z</time>
      </trkpt>
      <trkpt lat="59.8531525" lon="17.7928281">
        <ele>39.5513</ele>
        <time>2012-04-18T16:20:17Z</time>
      </trkpt>
      <trkpt lat="59.8528341" lon="17.7919805">
        <ele>35.7061</ele>
        <time>2012-04-18T16:20:25Z</time>
      </trkpt>
      <trkpt lat="59.8524782" lon="17.7910808">
        <ele>33.3029</ele>
        <time>2012-04-18T16:20:34Z</time>
      </trkpt>
      <trkpt lat="59.8521341" lon="17.7902783">
        <ele>32.3416</ele>
        <time>2012-04-18T16:20:43Z</time>
      </trkpt>
      <trkpt lat="59.8518968" lon="17.7896824">
        <ele>32.8223</ele>
        <time>2012-04-18T16:20:50Z</time>
      </trkpt>
      <trkpt lat="59.8516969" lon="17.7891697">
        <ele>34.2642</ele>
        <time>2012-04-18T16:20:56Z</time>
      </trkpt>
      <trkpt lat="59.85137" lon="17.7883586">
        <ele>33.3029</ele>
        <time>2012-04-18T16:21:06Z</time>
      </trkpt>
      <trkpt lat="59.8510742" lon="17.7876541">
        <ele>31.8607</ele>
        <time>2012-04-18T16:21:14Z</time>
      </trkpt>
      <trkpt lat="59.8507099" lon="17.786779">
        <ele>29.4575</ele>
        <time>2012-04-18T16:21:23Z</time>
      </trkpt>
      <trkpt lat="59.850427" lon="17.7860218">
        <ele>27.5349</ele>
        <time>2012-04-18T16:21:30Z</time>
      </trkpt>
      <trkpt lat="59.8501204" lon="17.7852016">
        <ele>25.6123</ele>
        <time>2012-04-18T16:21:37Z</time>
      </trkpt>
      <trkpt lat="59.8498538" lon="17.7842524">
        <ele>24.1703</ele>
        <time>2012-04-18T16:21:44Z</time>
      </trkpt>
      <trkpt lat="59.8498236" lon="17.7841088">
        <ele>24.1703</ele>
        <time>2012-04-18T16:21:45Z</time>
      </trkpt>
      <trkpt lat="59.8497766" lon="17.7838068">
        <ele>23.209</ele>
        <time>2012-04-18T16:21:47Z</time>
      </trkpt>
      <trkpt lat="59.8495014" lon="17.7825394">
        <ele>22.2476</ele>
        <time>2012-04-18T16:21:56Z</time>
      </trkpt>
      <trkpt lat="59.8492248" lon="17.7811783">
        <ele>22.2476</ele>
        <time>2012-04-18T16:22:06Z</time>
      </trkpt>
      <trkpt lat="59.849073" lon="17.7802832">
        <ele>22.2476</ele>
        <time>2012-04-18T16:22:13Z</time>
      </trkpt>
      <trkpt lat="59.8490181" lon="17.7799118">
        <ele>22.7283</ele>
        <time>2012-04-18T16:22:16Z</time>
      </trkpt>
      <trkpt lat="59.8489641" lon="17.7796851">
        <ele>22.7283</ele>
        <time>2012-04-18T16:22:18Z</time>
      </trkpt>
      <trkpt lat="59.8488799" lon="17.7787817">
        <ele>22.7283</ele>
        <time>2012-04-18T16:22:25Z</time>
      </trkpt>
      <trkpt lat="59.8488532" lon="17.7777366">
        <ele>22.7283</ele>
        <time>2012-04-18T16:22:33Z</time>
      </trkpt>
      <trkpt lat="59.848798" lon="17.7769686">
        <ele>21.767</ele>
        <time>2012-04-18T16:22:39Z</time>
      </trkpt>
      <trkpt lat="59.8487488" lon="17.7758952">
        <ele>20.325</ele>
        <time>2012-04-18T16:22:47Z</time>
      </trkpt>
      <trkpt lat="59.8486545" lon="17.7747596">
        <ele>17.9218</ele>
        <time>2012-04-18T16:22:55Z</time>
      </trkpt>
      <trkpt lat="59.8485025" lon="17.7734081">
        <ele>14.557</ele>
        <time>2012-04-18T16:23:04Z</time>
      </trkpt>
      <trkpt lat="59.8483655" lon="17.7722774">
        <ele>11.6732</ele>
        <time>2012-04-18T16:23:11Z</time>
      </trkpt>
      <trkpt lat="59.8481335" lon="17.7709522">
        <ele>11.1925</ele>
        <time>2012-04-18T16:23:20Z</time>
      </trkpt>
      <trkpt lat="59.8480874" lon="17.7703868">
        <ele>10.7118</ele>
        <time>2012-04-18T16:23:24Z</time>
      </trkpt>
      <trkpt lat="59.8479407" lon="17.7697842">
        <ele>10.7118</ele>
        <time>2012-04-18T16:23:29Z</time>
      </trkpt>
      <trkpt lat="59.8479069" lon="17.7696727">
        <ele>10.7118</ele>
        <time>2012-04-18T16:23:30Z</time>
      </trkpt>
      <trkpt lat="59.8477639" lon="17.7688577">
        <ele>10.7118</ele>
        <time>2012-04-18T16:23:37Z</time>
      </trkpt>
      <trkpt lat="59.8475662" lon="17.7676292">
        <ele>10.7118</ele>
        <time>2012-04-18T16:23:48Z</time>
      </trkpt>
      <trkpt lat="59.8473829" lon="17.7665094">
        <ele>11.6732</ele>
        <time>2012-04-18T16:23:59Z</time>
      </trkpt>
      <trkpt lat="59.8472432" lon="17.7656501">
        <ele>11.1925</ele>
        <time>2012-04-18T16:24:08Z</time>
      </trkpt>
      <trkpt lat="59.8472155" lon="17.7654455">
        <ele>11.1925</ele>
        <time>2012-04-18T16:24:10Z</time>
      </trkpt>
      <trkpt lat="59.8472871" lon="17.76506">
        <ele>11.1925</ele>
        <time>2012-04-18T16:24:14Z</time>
      </trkpt>
      <trkpt lat="59.8473242" lon="17.7649803">
        <ele>11.1925</ele>
        <time>2012-04-18T16:24:15Z</time>
      </trkpt>
      <trkpt lat="59.847684" lon="17.7642291">
        <ele>11.1925</ele>
        <time>2012-04-18T16:24:24Z</time>
      </trkpt>
      <trkpt lat="59.8480546" lon="17.7634599">
        <ele>11.1925</ele>
        <time>2012-04-18T16:24:33Z</time>
      </trkpt>
      <trkpt lat="59.8482914" lon="17.7629787">
        <ele>11.6732</ele>
        <time>2012-04-18T16:24:39Z</time>
      </trkpt>
      <trkpt lat="59.8483722" lon="17.7625641">
        <ele>11.6732</ele>
        <time>2012-04-18T16:24:43Z</time>
      </trkpt>
      <trkpt lat="59.8484007" lon="17.7612854">
        <ele>11.1925</ele>
        <time>2012-04-18T16:24:54Z</time>
      </trkpt>
      <trkpt lat="59.8484214" lon="17.760311">
        <ele>10.7118</ele>
        <time>2012-04-18T16:25:03Z</time>
      </trkpt>
      <trkpt lat="59.848454" lon="17.7590636">
        <ele>11.1925</ele>
        <time>2012-04-18T16:25:15Z</time>
      </trkpt>
      <trkpt lat="59.8484797" lon="17.7580778">
        <ele>12.1538</ele>
        <time>2012-04-18T16:25:25Z</time>
      </trkpt>
      <trkpt lat="59.8484929" lon="17.7570019">
        <ele>13.1151</ele>
        <time>2012-04-18T16:25:36Z</time>
      </trkpt>
      <trkpt lat="59.8484526" lon="17.7559674">
        <ele>13.5958</ele>
        <time>2012-04-18T16:25:46Z</time>
      </trkpt>
      <trkpt lat="59.8483463" lon="17.7547939">
        <ele>14.557</ele>
        <time>2012-04-18T16:25:58Z</time>
      </trkpt>
      <trkpt lat="59.8482441" lon="17.7539478">
        <ele>15.999</ele>
        <time>2012-04-18T16:26:07Z</time>
      </trkpt>
      <trkpt lat="59.848126" lon="17.7530053">
        <ele>18.4023</ele>
        <time>2012-04-18T16:26:18Z</time>
      </trkpt>
      <trkpt lat="59.848034" lon="17.7522546">
        <ele>20.8057</ele>
        <time>2012-04-18T16:26:28Z</time>
      </trkpt>
      <trkpt lat="59.8479469" lon="17.7515902">
        <ele>22.7283</ele>
        <time>2012-04-18T16:26:37Z</time>
      </trkpt>
      <trkpt lat="59.8478666" lon="17.7507545">
        <ele>24.651</ele>
        <time>2012-04-18T16:26:47Z</time>
      </trkpt>
      <trkpt lat="59.8478066" lon="17.7498536">
        <ele>26.0929</ele>
        <time>2012-04-18T16:26:57Z</time>
      </trkpt>
      <trkpt lat="59.8477613" lon="17.7488594">
        <ele>25.1317</ele>
        <time>2012-04-18T16:27:07Z</time>
      </trkpt>
      <trkpt lat="59.847747" lon="17.7482051">
        <ele>25.1317</ele>
        <time>2012-04-18T16:27:13Z</time>
      </trkpt>
      <trkpt lat="59.847753" lon="17.7470425">
        <ele>24.1703</ele>
        <time>2012-04-18T16:27:23Z</time>
      </trkpt>
      <trkpt lat="59.84777" lon="17.7459641">
        <ele>23.209</ele>
        <time>2012-04-18T16:27:31Z</time>
      </trkpt>
      <trkpt lat="59.847798" lon="17.7443527">
        <ele>21.767</ele>
        <time>2012-04-18T16:27:42Z</time>
      </trkpt>
      <trkpt lat="59.8478221" lon="17.7427598">
        <ele>20.8057</ele>
        <time>2012-04-18T16:27:53Z</time>
      </trkpt>
      <trkpt lat="59.8478426" lon="17.7414346">
        <ele>20.8057</ele>
        <time>2012-04-18T16:28:03Z</time>
      </trkpt>
      <trkpt lat="59.8478579" lon="17.7401873">
        <ele>20.325</ele>
        <time>2012-04-18T16:28:13Z</time>
      </trkpt>
      <trkpt lat="59.8478697" lon="17.7391792">
        <ele>20.325</ele>
        <time>2012-04-18T16:28:22Z</time>
      </trkpt>
      <trkpt lat="59.8480023" lon="17.7388382">
        <ele>20.325</ele>
        <time>2012-04-18T16:28:26Z</time>
      </trkpt>
      <trkpt lat="59.8480633" lon="17.7388099">
        <ele>19.8444</ele>
        <time>2012-04-18T16:28:27Z</time>
      </trkpt>
      <trkpt lat="59.84864" lon="17.738554">
        <ele>19.8444</ele>
        <time>2012-04-18T16:28:36Z</time>
      </trkpt>
      <trkpt lat="59.8493811" lon="17.7382008">
        <ele>19.8444</ele>
        <time>2012-04-18T16:28:47Z</time>
      </trkpt>
      <trkpt lat="59.8501638" lon="17.737894">
        <ele>19.8444</ele>
        <time>2012-04-18T16:28:58Z</time>
      </trkpt>
      <trkpt lat="59.8506872" lon="17.737551">
        <ele>19.3638</ele>
        <time>2012-04-18T16:29:05Z</time>
      </trkpt>
      <trkpt lat="59.8514289" lon="17.736934">
        <ele>19.3638</ele>
        <time>2012-04-18T16:29:15Z</time>
      </trkpt>
      <trkpt lat="59.8518067" lon="17.7363973">
        <ele>19.3638</ele>
        <time>2012-04-18T16:29:21Z</time>
      </trkpt>
      <trkpt lat="59.8522557" lon="17.7357366">
        <ele>19.3638</ele>
        <time>2012-04-18T16:29:28Z</time>
      </trkpt>
      <trkpt lat="59.853029" lon="17.7348148">
        <ele>19.3638</ele>
        <time>2012-04-18T16:29:39Z</time>
      </trkpt>
      <trkpt lat="59.8535083" lon="17.7341442">
        <ele>17.9218</ele>
        <time>2012-04-18T16:29:46Z</time>
      </trkpt>
      <trkpt lat="59.8536269" lon="17.7338754">
        <ele>16.9604</ele>
        <time>2012-04-18T16:29:48Z</time>
      </trkpt>
      <trkpt lat="59.8538398" lon="17.7330357">
        <ele>15.0377</ele>
        <time>2012-04-18T16:29:53Z</time>
      </trkpt>
      <trkpt lat="59.8539209" lon="17.7322788">
        <ele>13.5958</ele>
        <time>2012-04-18T16:29:57Z</time>
      </trkpt>
      <trkpt lat="59.8539412" lon="17.7317762">
        <ele>14.557</ele>
        <time>2012-04-18T16:30:00Z</time>
      </trkpt>
      <trkpt lat="59.8540946" lon="17.7307042">
        <ele>16.9604</ele>
        <time>2012-04-18T16:30:07Z</time>
      </trkpt>
      <trkpt lat="59.8542481" lon="17.7301561">
        <ele>18.8831</ele>
        <time>2012-04-18T16:30:12Z</time>
      </trkpt>
      <trkpt lat="59.8545075" lon="17.729476">
        <ele>20.8057</ele>
        <time>2012-04-18T16:30:20Z</time>
      </trkpt>
      <trkpt lat="59.8547939" lon="17.72875">
        <ele>21.2864</ele>
        <time>2012-04-18T16:30:28Z</time>
      </trkpt>
      <trkpt lat="59.855225" lon="17.7276385">
        <ele>21.767</ele>
        <time>2012-04-18T16:30:39Z</time>
      </trkpt>
      <trkpt lat="59.8556008" lon="17.7265413">
        <ele>20.8057</ele>
        <time>2012-04-18T16:30:49Z</time>
      </trkpt>
      <trkpt lat="59.8558749" lon="17.7257783">
        <ele>19.8444</ele>
        <time>2012-04-18T16:30:56Z</time>
      </trkpt>
      <trkpt lat="59.8562334" lon="17.7249023">
        <ele>20.325</ele>
        <time>2012-04-18T16:31:05Z</time>
      </trkpt>
      <trkpt lat="59.8566123" lon="17.7239978">
        <ele>21.2864</ele>
        <time>2012-04-18T16:31:15Z</time>
      </trkpt>
      <trkpt lat="59.8569472" lon="17.7233203">
        <ele>22.7283</ele>
        <time>2012-04-18T16:31:24Z</time>
      </trkpt>
      <trkpt lat="59.857224" lon="17.7228685">
        <ele>23.6896</ele>
        <time>2012-04-18T16:31:32Z</time>
      </trkpt>
      <trkpt lat="59.8575547" lon="17.7223034">
        <ele>23.6896</ele>
        <time>2012-04-18T16:31:41Z</time>
      </trkpt>
      <trkpt lat="59.8576954" lon="17.7218884">
        <ele>23.209</ele>
        <time>2012-04-18T16:31:46Z</time>
      </trkpt>
      <trkpt lat="59.8577533" lon="17.7212497">
        <ele>22.2476</ele>
        <time>2012-04-18T16:31:52Z</time>
      </trkpt>
      <trkpt lat="59.8577441" lon="17.7208953">
        <ele>21.767</ele>
        <time>2012-04-18T16:31:55Z</time>
      </trkpt>
      <trkpt lat="59.857731" lon="17.7198263">
        <ele>19.3638</ele>
        <time>2012-04-18T16:32:03Z</time>
      </trkpt>
      <trkpt lat="59.8576951" lon="17.7186174">
        <ele>18.8831</ele>
        <time>2012-04-18T16:32:12Z</time>
      </trkpt>
      <trkpt lat="59.8577113" lon="17.7175257">
        <ele>19.8444</ele>
        <time>2012-04-18T16:32:21Z</time>
      </trkpt>
      <trkpt lat="59.857675" lon="17.7165571">
        <ele>19.8444</ele>
        <time>2012-04-18T16:32:29Z</time>
      </trkpt>
      <trkpt lat="59.8576654" lon="17.7160485">
        <ele>20.325</ele>
        <time>2012-04-18T16:32:33Z</time>
      </trkpt>
      <trkpt lat="59.8577812" lon="17.7151891">
        <ele>20.8057</ele>
        <time>2012-04-18T16:32:40Z</time>
      </trkpt>
      <trkpt lat="59.8579928" lon="17.7144021">
        <ele>20.8057</ele>
        <time>2012-04-18T16:32:47Z</time>
      </trkpt>
      <trkpt lat="59.8581398" lon="17.713993">
        <ele>21.2864</ele>
        <time>2012-04-18T16:32:51Z</time>
      </trkpt>
      <trkpt lat="59.8582751" lon="17.7131737">
        <ele>21.767</ele>
        <time>2012-04-18T16:32:58Z</time>
      </trkpt>
      <trkpt lat="59.8583996" lon="17.7122777">
        <ele>22.7283</ele>
        <time>2012-04-18T16:33:06Z</time>
      </trkpt>
      <trkpt lat="59.858548" lon="17.7115869">
        <ele>23.209</ele>
        <time>2012-04-18T16:33:13Z</time>
      </trkpt>
      <trkpt lat="59.8585695" lon="17.7109213">
        <ele>23.6896</ele>
        <time>2012-04-18T16:33:19Z</time>
      </trkpt>
      <trkpt lat="59.8585392" lon="17.710685">
        <ele>23.6896</ele>
        <time>2012-04-18T16:33:21Z</time>
      </trkpt>
      <trkpt lat="59.8585003" lon="17.7104927">
        <ele>23.209</ele>
        <time>2012-04-18T16:33:23Z</time>
      </trkpt>
      <trkpt lat="59.8583671" lon="17.7096036">
        <ele>21.2864</ele>
        <time>2012-04-18T16:33:31Z</time>
      </trkpt>
      <trkpt lat="59.8583536" lon="17.709481">
        <ele>21.2864</ele>
        <time>2012-04-18T16:33:32Z</time>
      </trkpt>
      <trkpt lat="59.858346" lon="17.7089723">
        <ele>20.8057</ele>
        <time>2012-04-18T16:33:36Z</time>
      </trkpt>
      <trkpt lat="59.8584407" lon="17.7080504">
        <ele>19.8444</ele>
        <time>2012-04-18T16:33:43Z</time>
      </trkpt>
      <trkpt lat="59.8585376" lon="17.7071294">
        <ele>17.9218</ele>
        <time>2012-04-18T16:33:49Z</time>
      </trkpt>
      <trkpt lat="59.8586552" lon="17.7062375">
        <ele>16.4797</ele>
        <time>2012-04-18T16:33:55Z</time>
      </trkpt>
      <trkpt lat="59.858823" lon="17.7053367">
        <ele>15.999</ele>
        <time>2012-04-18T16:34:02Z</time>
      </trkpt>
      <trkpt lat="59.8588623" lon="17.7051044">
        <ele>15.999</ele>
        <time>2012-04-18T16:34:04Z</time>
      </trkpt>
      <trkpt lat="59.859023" lon="17.7047309">
        <ele>15.5184</ele>
        <time>2012-04-18T16:34:08Z</time>
      </trkpt>
      <trkpt lat="59.8591914" lon="17.7045129">
        <ele>15.999</ele>
        <time>2012-04-18T16:34:11Z</time>
      </trkpt>
      <trkpt lat="59.8595907" lon="17.7043249">
        <ele>15.5184</ele>
        <time>2012-04-18T16:34:17Z</time>
      </trkpt>
      <trkpt lat="59.8602025" lon="17.7040601">
        <ele>16.9604</ele>
        <time>2012-04-18T16:34:26Z</time>
      </trkpt>
      <trkpt lat="59.8608277" lon="17.7037722">
        <ele>20.325</ele>
        <time>2012-04-18T16:34:35Z</time>
      </trkpt>
      <trkpt lat="59.8608986" lon="17.7037467">
        <ele>20.8057</ele>
        <time>2012-04-18T16:34:36Z</time>
      </trkpt>
      <trkpt lat="59.8613463" lon="17.7038302">
        <ele>23.209</ele>
        <time>2012-04-18T16:34:42Z</time>
      </trkpt>
      <trkpt lat="59.862046" lon="17.7040695">
        <ele>22.2476</ele>
        <time>2012-04-18T16:34:52Z</time>
      </trkpt>
      <trkpt lat="59.8626756" lon="17.7043041">
        <ele>20.325</ele>
        <time>2012-04-18T16:35:01Z</time>
      </trkpt>
      <trkpt lat="59.8629569" lon="17.704403">
        <ele>20.325</ele>
        <time>2012-04-18T16:35:05Z</time>
      </trkpt>
      <trkpt lat="59.8632306" lon="17.7042701">
        <ele>20.325</ele>
        <time>2012-04-18T16:35:09Z</time>
      </trkpt>
      <trkpt lat="59.8636688" lon="17.7037228">
        <ele>19.3638</ele>
        <time>2012-04-18T16:35:16Z</time>
      </trkpt>
      <trkpt lat="59.864228" lon="17.7030957">
        <ele>19.3638</ele>
        <time>2012-04-18T16:35:25Z</time>
      </trkpt>
      <trkpt lat="59.8645332" lon="17.7027269">
        <ele>19.3638</ele>
        <time>2012-04-18T16:35:31Z</time>
      </trkpt>
      <trkpt lat="59.8647958" lon="17.7023918">
        <ele>19.8444</ele>
        <time>2012-04-18T16:35:36Z</time>
      </trkpt>
      <trkpt lat="59.8652752" lon="17.7016112">
        <ele>21.2864</ele>
        <time>2012-04-18T16:35:46Z</time>
      </trkpt>
      <trkpt lat="59.8653183" lon="17.7015327">
        <ele>21.2864</ele>
        <time>2012-04-18T16:35:47Z</time>
      </trkpt>
      <trkpt lat="59.8654571" lon="17.7011647">
        <ele>21.767</ele>
        <time>2012-04-18T16:35:51Z</time>
      </trkpt>
      <trkpt lat="59.8656736" lon="17.7004">
        <ele>24.1703</ele>
        <time>2012-04-18T16:35:59Z</time>
      </trkpt>
      <trkpt lat="59.8659104" lon="17.6998251">
        <ele>25.6123</ele>
        <time>2012-04-18T16:36:06Z</time>
      </trkpt>
      <trkpt lat="59.8661513" lon="17.6993199">
        <ele>25.1317</ele>
        <time>2012-04-18T16:36:12Z</time>
      </trkpt>
      <trkpt lat="59.8664532" lon="17.6989304">
        <ele>25.6123</ele>
        <time>2012-04-18T16:36:18Z</time>
      </trkpt>
      <trkpt lat="59.8667754" lon="17.6985124">
        <ele>25.1317</ele>
        <time>2012-04-18T16:36:24Z</time>
      </trkpt>
      <trkpt lat="59.8671643" lon="17.6978695">
        <ele>24.1703</ele>
        <time>2012-04-18T16:36:31Z</time>
      </trkpt>
      <trkpt lat="59.8675503" lon="17.6975549">
        <ele>24.1703</ele>
        <time>2012-04-18T16:36:37Z</time>
      </trkpt>
      <trkpt lat="59.8679322" lon="17.6972338">
        <ele>25.1317</ele>
        <time>2012-04-18T16:36:43Z</time>
      </trkpt>
      <trkpt lat="59.8682902" lon="17.6968094">
        <ele>25.6123</ele>
        <time>2012-04-18T16:36:49Z</time>
      </trkpt>
      <trkpt lat="59.8686042" lon="17.6965646">
        <ele>25.6123</ele>
        <time>2012-04-18T16:36:55Z</time>
      </trkpt>
      <trkpt lat="59.8687315" lon="17.6964569">
        <ele>25.6123</ele>
        <time>2012-04-18T16:36:58Z</time>
      </trkpt>
      <trkpt lat="59.8688558" lon="17.6963357">
        <ele>25.1317</ele>
        <time>2012-04-18T16:37:01Z</time>
      </trkpt>
      <trkpt lat="59.8689375" lon="17.6961962">
        <ele>25.1317</ele>
        <time>2012-04-18T16:37:04Z</time>
      </trkpt>
      <trkpt lat="59.8691667" lon="17.6958761">
        <ele>25.1317</ele>
        <time>2012-04-18T16:37:09Z</time>
      </trkpt>
      <trkpt lat="59.8696893" lon="17.6952146">
        <ele>25.1317</ele>
        <time>2012-04-18T16:37:18Z</time>
      </trkpt>
      <trkpt lat="59.8701773" lon="17.6946992">
        <ele>27.0543</ele>
        <time>2012-04-18T16:37:26Z</time>
      </trkpt>
      <trkpt lat="59.8705212" lon="17.6943157">
        <ele>27.5349</ele>
        <time>2012-04-18T16:37:32Z</time>
      </trkpt>
      <trkpt lat="59.8709569" lon="17.6938026">
        <ele>28.0155</ele>
        <time>2012-04-18T16:37:40Z</time>
      </trkpt>
      <trkpt lat="59.8710636" lon="17.6936559">
        <ele>27.5349</ele>
        <time>2012-04-18T16:37:42Z</time>
      </trkpt>
      <trkpt lat="59.8714454" lon="17.6928556">
        <ele>26.0929</ele>
        <time>2012-04-18T16:37:50Z</time>
      </trkpt>
      <trkpt lat="59.8718431" lon="17.6920097">
        <ele>26.0929</ele>
        <time>2012-04-18T16:37:58Z</time>
      </trkpt>
      <trkpt lat="59.8721959" lon="17.6912541">
        <ele>26.0929</ele>
        <time>2012-04-18T16:38:06Z</time>
      </trkpt>
      <trkpt lat="59.872512" lon="17.6905018">
        <ele>26.5736</ele>
        <time>2012-04-18T16:38:14Z</time>
      </trkpt>
      <trkpt lat="59.8727286" lon="17.6897889">
        <ele>27.5349</ele>
        <time>2012-04-18T16:38:21Z</time>
      </trkpt>
      <trkpt lat="59.8729637" lon="17.6892467">
        <ele>27.5349</ele>
        <time>2012-04-18T16:38:27Z</time>
      </trkpt>
      <trkpt lat="59.873142" lon="17.688883">
        <ele>26.5736</ele>
        <time>2012-04-18T16:38:31Z</time>
      </trkpt>
      <trkpt lat="59.8735774" lon="17.6883348">
        <ele>25.6123</ele>
        <time>2012-04-18T16:38:39Z</time>
      </trkpt>
      <trkpt lat="59.8738438" lon="17.6880651">
        <ele>26.0929</ele>
        <time>2012-04-18T16:38:44Z</time>
      </trkpt>
      <trkpt lat="59.873948" lon="17.6877149">
        <ele>25.6123</ele>
        <time>2012-04-18T16:38:48Z</time>
      </trkpt>
      <trkpt lat="59.8740345" lon="17.687288">
        <ele>25.6123</ele>
        <time>2012-04-18T16:38:52Z</time>
      </trkpt>
      <trkpt lat="59.8740763" lon="17.6871991">
        <ele>25.6123</ele>
        <time>2012-04-18T16:38:53Z</time>
      </trkpt>
      <trkpt lat="59.8745161" lon="17.6862723">
        <ele>25.6123</ele>
        <time>2012-04-18T16:39:03Z</time>
      </trkpt>
      <trkpt lat="59.8750045" lon="17.6852275">
        <ele>26.5736</ele>
        <time>2012-04-18T16:39:14Z</time>
      </trkpt>
      <trkpt lat="59.8755101" lon="17.6841614">
        <ele>28.9769</ele>
        <time>2012-04-18T16:39:26Z</time>
      </trkpt>
      <trkpt lat="59.8758996" lon="17.6833249">
        <ele>30.4188</ele>
        <time>2012-04-18T16:39:36Z</time>
      </trkpt>
      <trkpt lat="59.8763171" lon="17.6824218">
        <ele>31.3801</ele>
        <time>2012-04-18T16:39:47Z</time>
      </trkpt>
      <trkpt lat="59.8765533" lon="17.6818988">
        <ele>31.3801</ele>
        <time>2012-04-18T16:39:53Z</time>
      </trkpt>
      <trkpt lat="59.876934" lon="17.6810715">
        <ele>30.8995</ele>
        <time>2012-04-18T16:40:02Z</time>
      </trkpt>
      <trkpt lat="59.8771272" lon="17.6806081">
        <ele>30.8995</ele>
        <time>2012-04-18T16:40:07Z</time>
      </trkpt>
      <trkpt lat="59.8773049" lon="17.6800023">
        <ele>31.3801</ele>
        <time>2012-04-18T16:40:13Z</time>
      </trkpt>
      <trkpt lat="59.877347" lon="17.6797881">
        <ele>31.3801</ele>
        <time>2012-04-18T16:40:15Z</time>
      </trkpt>
      <trkpt lat="59.8774735" lon="17.679501">
        <ele>30.8995</ele>
        <time>2012-04-18T16:40:18Z</time>
      </trkpt>
      <trkpt lat="59.8778583" lon="17.6788699">
        <ele>31.3801</ele>
        <time>2012-04-18T16:40:25Z</time>
      </trkpt>
      <trkpt lat="59.8781649" lon="17.6782671">
        <ele>30.8995</ele>
        <time>2012-04-18T16:40:31Z</time>
      </trkpt>
      <trkpt lat="59.8784659" lon="17.677579">
        <ele>31.3801</ele>
        <time>2012-04-18T16:40:37Z</time>
      </trkpt>
      <trkpt lat="59.8787104" lon="17.6770222">
        <ele>31.3801</ele>
        <time>2012-04-18T16:40:42Z</time>
      </trkpt>
      <trkpt lat="59.878857" lon="17.6766943">
        <ele>31.8607</ele>
        <time>2012-04-18T16:40:45Z</time>
      </trkpt>
      <trkpt lat="59.8791819" lon="17.6761367">
        <ele>31.8607</ele>
        <time>2012-04-18T16:40:51Z</time>
      </trkpt>
      <trkpt lat="59.8796473" lon="17.6754106">
        <ele>30.8995</ele>
        <time>2012-04-18T16:40:59Z</time>
      </trkpt>
      <trkpt lat="59.8801082" lon="17.6747631">
        <ele>30.4188</ele>
        <time>2012-04-18T16:41:06Z</time>
      </trkpt>
      <trkpt lat="59.8806426" lon="17.6742435">
        <ele>29.9381</ele>
        <time>2012-04-18T16:41:13Z</time>
      </trkpt>
      <trkpt lat="59.8812036" lon="17.6737269">
        <ele>29.9381</ele>
        <time>2012-04-18T16:41:20Z</time>
      </trkpt>
      <trkpt lat="59.8812801" lon="17.6736461">
        <ele>29.9381</ele>
        <time>2012-04-18T16:41:21Z</time>
      </trkpt>
      <trkpt lat="59.8815883" lon="17.6733359">
        <ele>29.9381</ele>
        <time>2012-04-18T16:41:25Z</time>
      </trkpt>
      <trkpt lat="59.8817557" lon="17.6732444">
        <ele>29.9381</ele>
        <time>2012-04-18T16:41:27Z</time>
      </trkpt>
      <trkpt lat="59.8819941" lon="17.6730423">
        <ele>29.9381</ele>
        <time>2012-04-18T16:41:30Z</time>
      </trkpt>
      <trkpt lat="59.882192" lon="17.6727268">
        <ele>29.9381</ele>
        <time>2012-04-18T16:41:33Z</time>
      </trkpt>
      <trkpt lat="59.882476" lon="17.6723874">
        <ele>29.9381</ele>
        <time>2012-04-18T16:41:37Z</time>
      </trkpt>
      <trkpt lat="59.8826411" lon="17.6723348">
        <ele>29.9381</ele>
        <time>2012-04-18T16:41:39Z</time>
      </trkpt>
      <trkpt lat="59.8830498" lon="17.6721436">
        <ele>29.4575</ele>
        <time>2012-04-18T16:41:44Z</time>
      </trkpt>
      <trkpt lat="59.8835419" lon="17.6715831">
        <ele>29.4575</ele>
        <time>2012-04-18T16:41:51Z</time>
      </trkpt>
      <trkpt lat="59.8836746" lon="17.6714187">
        <ele>29.4575</ele>
        <time>2012-04-18T16:41:53Z</time>
      </trkpt>
      <trkpt lat="59.8838845" lon="17.6713256">
        <ele>28.9769</ele>
        <time>2012-04-18T16:41:56Z</time>
      </trkpt>
      <trkpt lat="59.8840506" lon="17.6711249">
        <ele>28.9769</ele>
        <time>2012-04-18T16:41:59Z</time>
      </trkpt>
      <trkpt lat="59.8840827" lon="17.6708701">
        <ele>28.9769</ele>
        <time>2012-04-18T16:42:01Z</time>
      </trkpt>
      <trkpt lat="59.8842168" lon="17.670233">
        <ele>28.9769</ele>
        <time>2012-04-18T16:42:06Z</time>
      </trkpt>
      <trkpt lat="59.8846461" lon="17.6692412">
        <ele>27.0543</ele>
        <time>2012-04-18T16:42:15Z</time>
      </trkpt>
      <trkpt lat="59.8849046" lon="17.6683766">
        <ele>25.6123</ele>
        <time>2012-04-18T16:42:22Z</time>
      </trkpt>
      <trkpt lat="59.8849509" lon="17.6681931">
        <ele>25.6123</ele>
        <time>2012-04-18T16:42:24Z</time>
      </trkpt>
      <trkpt lat="59.8850767" lon="17.6679529">
        <ele>25.1317</ele>
        <time>2012-04-18T16:42:29Z</time>
      </trkpt>
      <trkpt lat="59.8851147" lon="17.6678957">
        <ele>25.1317</ele>
        <time>2012-04-18T16:42:30Z</time>
      </trkpt>
      <trkpt lat="59.8852042" lon="17.6675229">
        <ele>25.1317</ele>
        <time>2012-04-18T16:42:34Z</time>
      </trkpt>
      <trkpt lat="59.8851861" lon="17.6672981">
        <ele>24.651</ele>
        <time>2012-04-18T16:42:36Z</time>
      </trkpt>
      <trkpt lat="59.8852037" lon="17.6664367">
        <ele>24.1703</ele>
        <time>2012-04-18T16:42:43Z</time>
      </trkpt>
      <trkpt lat="59.885327" lon="17.6653854">
        <ele>23.6896</ele>
        <time>2012-04-18T16:42:51Z</time>
      </trkpt>
      <trkpt lat="59.8854556" lon="17.6650316">
        <ele>23.6896</ele>
        <time>2012-04-18T16:42:55Z</time>
      </trkpt>
      <trkpt lat="59.8855012" lon="17.6649769">
        <ele>23.209</ele>
        <time>2012-04-18T16:42:57Z</time>
      </trkpt>
      <trkpt lat="59.8855993" lon="17.6649138">
        <ele>22.7283</ele>
        <time>2012-04-18T16:43:04Z</time>
      </trkpt>
      <trkpt lat="59.8857528" lon="17.6649287">
        <ele>22.7283</ele>
        <time>2012-04-18T16:43:07Z</time>
      </trkpt>
      <trkpt lat="59.8859458" lon="17.6649888">
        <ele>22.7283</ele>
        <time>2012-04-18T16:43:10Z</time>
      </trkpt>
      <trkpt lat="59.8862086" lon="17.6647313">
        <ele>22.2476</ele>
        <time>2012-04-18T16:43:14Z</time>
      </trkpt>
      <trkpt lat="59.886293" lon="17.6644633">
        <ele>22.2476</ele>
        <time>2012-04-18T16:43:16Z</time>
      </trkpt>
      <trkpt lat="59.8865976" lon="17.6635649">
        <ele>22.2476</ele>
        <time>2012-04-18T16:43:23Z</time>
      </trkpt>
      <trkpt lat="59.8869266" lon="17.6628542">
        <ele>22.7283</ele>
        <time>2012-04-18T16:43:30Z</time>
      </trkpt>
      <trkpt lat="59.8870968" lon="17.6621746">
        <ele>22.7283</ele>
        <time>2012-04-18T16:43:36Z</time>
      </trkpt>
      <trkpt lat="59.8871437" lon="17.6615916">
        <ele>23.209</ele>
        <time>2012-04-18T16:43:41Z</time>
      </trkpt>
      <trkpt lat="59.887264" lon="17.6612002">
        <ele>23.6896</ele>
        <time>2012-04-18T16:43:45Z</time>
      </trkpt>
      <trkpt lat="59.8873669" lon="17.6610598">
        <ele>23.6896</ele>
        <time>2012-04-18T16:43:47Z</time>
      </trkpt>
      <trkpt lat="59.8876093" lon="17.6608256">
        <ele>23.209</ele>
        <time>2012-04-18T16:43:51Z</time>
      </trkpt>
      <trkpt lat="59.8878332" lon="17.6604586">
        <ele>23.209</ele>
        <time>2012-04-18T16:43:55Z</time>
      </trkpt>
      <trkpt lat="59.8882662" lon="17.659311">
        <ele>23.6896</ele>
        <time>2012-04-18T16:44:05Z</time>
      </trkpt>
      <trkpt lat="59.8887312" lon="17.6580478">
        <ele>24.1703</ele>
        <time>2012-04-18T16:44:16Z</time>
      </trkpt>
      <trkpt lat="59.8890935" lon="17.6570653">
        <ele>25.1317</ele>
        <time>2012-04-18T16:44:25Z</time>
      </trkpt>
      <trkpt lat="59.889574" lon="17.655767">
        <ele>25.6123</ele>
        <time>2012-04-18T16:44:37Z</time>
      </trkpt>
      <trkpt lat="59.8900692" lon="17.6544318">
        <ele>25.6123</ele>
        <time>2012-04-18T16:44:49Z</time>
      </trkpt>
      <trkpt lat="59.8904808" lon="17.6533076">
        <ele>26.5736</ele>
        <time>2012-04-18T16:44:59Z</time>
      </trkpt>
      <trkpt lat="59.890934" lon="17.6520819">
        <ele>28.0155</ele>
        <time>2012-04-18T16:45:10Z</time>
      </trkpt>
      <trkpt lat="59.8912927" lon="17.6510947">
        <ele>28.4962</ele>
        <time>2012-04-18T16:45:19Z</time>
      </trkpt>
      <trkpt lat="59.8915416" lon="17.6503518">
        <ele>28.9769</ele>
        <time>2012-04-18T16:45:26Z</time>
      </trkpt>
      <trkpt lat="59.8918078" lon="17.6492366">
        <ele>29.9381</ele>
        <time>2012-04-18T16:45:36Z</time>
      </trkpt>
      <trkpt lat="59.8919834" lon="17.6482394">
        <ele>29.9381</ele>
        <time>2012-04-18T16:45:45Z</time>
      </trkpt>
      <trkpt lat="59.8920693" lon="17.6476907">
        <ele>29.9381</ele>
        <time>2012-04-18T16:45:50Z</time>
      </trkpt>
      <trkpt lat="59.8921916" lon="17.6467885">
        <ele>28.9769</ele>
        <time>2012-04-18T16:45:58Z</time>
      </trkpt>
      <trkpt lat="59.8922773" lon="17.6459369">
        <ele>28.9769</ele>
        <time>2012-04-18T16:46:05Z</time>
      </trkpt>
      <trkpt lat="59.8923968" lon="17.6447264">
        <ele>28.9769</ele>
        <time>2012-04-18T16:46:15Z</time>
      </trkpt>
      <trkpt lat="59.892548" lon="17.6432976">
        <ele>30.8995</ele>
        <time>2012-04-18T16:46:27Z</time>
      </trkpt>
      <trkpt lat="59.8925833" lon="17.6430718">
        <ele>30.8995</ele>
        <time>2012-04-18T16:46:29Z</time>
      </trkpt>
      <trkpt lat="59.8927339" lon="17.6427216">
        <ele>30.4188</ele>
        <time>2012-04-18T16:46:33Z</time>
      </trkpt>
      <trkpt lat="59.8930489" lon="17.6420239">
        <ele>30.8995</ele>
        <time>2012-04-18T16:46:41Z</time>
      </trkpt>
      <trkpt lat="59.8933054" lon="17.6414462">
        <ele>31.3801</ele>
        <time>2012-04-18T16:46:48Z</time>
      </trkpt>
      <trkpt lat="59.8935006" lon="17.6408698">
        <ele>31.3801</ele>
        <time>2012-04-18T16:46:54Z</time>
      </trkpt>
      <trkpt lat="59.8937061" lon="17.6400457">
        <ele>31.3801</ele>
        <time>2012-04-18T16:47:02Z</time>
      </trkpt>
      <trkpt lat="59.8939328" lon="17.6392796">
        <ele>31.3801</ele>
        <time>2012-04-18T16:47:10Z</time>
      </trkpt>
      <trkpt lat="59.8942524" lon="17.6386196">
        <ele>31.3801</ele>
        <time>2012-04-18T16:47:18Z</time>
      </trkpt>
      <trkpt lat="59.8945743" lon="17.6380767">
        <ele>30.4188</ele>
        <time>2012-04-18T16:47:25Z</time>
      </trkpt>
      <trkpt lat="59.8947518" lon="17.6376249">
        <ele>29.9381</ele>
        <time>2012-04-18T16:47:30Z</time>
      </trkpt>
      <trkpt lat="59.8948554" lon="17.6371043">
        <ele>29.4575</ele>
        <time>2012-04-18T16:47:35Z</time>
      </trkpt>
      <trkpt lat="59.8950019" lon="17.6369023">
        <ele>29.4575</ele>
        <time>2012-04-18T16:47:38Z</time>
      </trkpt>
      <trkpt lat="59.8953946" lon="17.6367121">
        <ele>30.4188</ele>
        <time>2012-04-18T16:47:44Z</time>
      </trkpt>
      <trkpt lat="59.8956404" lon="17.6365811">
        <ele>30.8995</ele>
        <time>2012-04-18T16:47:48Z</time>
      </trkpt>
      <trkpt lat="59.8960442" lon="17.6365464">
        <ele>30.8995</ele>
        <time>2012-04-18T16:47:54Z</time>
      </trkpt>
      <trkpt lat="59.8961124" lon="17.6365717">
        <ele>30.8995</ele>
        <time>2012-04-18T16:47:55Z</time>
      </trkpt>
      <trkpt lat="59.8963542" lon="17.6365098">
        <ele>29.9381</ele>
        <time>2012-04-18T16:47:59Z</time>
      </trkpt>
      <trkpt lat="59.8964667" lon="17.6365128">
        <ele>29.4575</ele>
        <time>2012-04-18T16:48:01Z</time>
      </trkpt>
      <trkpt lat="59.8967958" lon="17.6366371">
        <ele>28.4962</ele>
        <time>2012-04-18T16:48:08Z</time>
      </trkpt>
      <trkpt lat="59.8968443" lon="17.6366586">
        <ele>28.4962</ele>
        <time>2012-04-18T16:48:09Z</time>
      </trkpt>
      <trkpt lat="59.89711" lon="17.6367853">
        <ele>28.0155</ele>
        <time>2012-04-18T16:48:14Z</time>
      </trkpt>
      <trkpt lat="59.8974261" lon="17.636827">
        <ele>26.5736</ele>
        <time>2012-04-18T16:48:19Z</time>
      </trkpt>
      <trkpt lat="59.8974919" lon="17.6368747">
        <ele>27.0543</ele>
        <time>2012-04-18T16:48:20Z</time>
      </trkpt>
      <trkpt lat="59.8976189" lon="17.6369798">
        <ele>27.0543</ele>
        <time>2012-04-18T16:48:22Z</time>
      </trkpt>
      <trkpt lat="59.8978183" lon="17.6370759">
        <ele>26.0929</ele>
        <time>2012-04-18T16:48:25Z</time>
      </trkpt>
      <trkpt lat="59.8984198" lon="17.6375589">
        <ele>23.6896</ele>
        <time>2012-04-18T16:48:34Z</time>
      </trkpt>
      <trkpt lat="59.8988315" lon="17.6379522">
        <ele>23.6896</ele>
        <time>2012-04-18T16:48:41Z</time>
      </trkpt>
      <trkpt lat="59.8993459" lon="17.6384294">
        <ele>22.7283</ele>
        <time>2012-04-18T16:48:49Z</time>
      </trkpt>
      <trkpt lat="59.8998901" lon="17.6389729">
        <ele>21.767</ele>
        <time>2012-04-18T16:48:57Z</time>
      </trkpt>
      <trkpt lat="59.900542" lon="17.6396553">
        <ele>21.2864</ele>
        <time>2012-04-18T16:49:07Z</time>
      </trkpt>
      <trkpt lat="59.901107" lon="17.6402273">
        <ele>21.2864</ele>
        <time>2012-04-18T16:49:16Z</time>
      </trkpt>
      <trkpt lat="59.9016683" lon="17.6407515">
        <ele>20.325</ele>
        <time>2012-04-18T16:49:26Z</time>
      </trkpt>
      <trkpt lat="59.9021666" lon="17.6411593">
        <ele>19.3638</ele>
        <time>2012-04-18T16:49:36Z</time>
      </trkpt>
      <trkpt lat="59.9026226" lon="17.6414603">
        <ele>18.8831</ele>
        <time>2012-04-18T16:49:46Z</time>
      </trkpt>
      <trkpt lat="59.9027265" lon="17.6415302">
        <ele>18.4023</ele>
        <time>2012-04-18T16:49:49Z</time>
      </trkpt>
      <trkpt lat="59.9027967" lon="17.6415623">
        <ele>18.4023</ele>
        <time>2012-04-18T16:49:51Z</time>
      </trkpt>
      <trkpt lat="59.9031116" lon="17.6417307">
        <ele>17.9218</ele>
        <time>2012-04-18T16:50:00Z</time>
      </trkpt>
      <trkpt lat="59.9031797" lon="17.6417629">
        <ele>17.9218</ele>
        <time>2012-04-18T16:50:02Z</time>
      </trkpt>
      <trkpt lat="59.935618" lon="17.6461187">
        <ele>35.7061</ele>
        <time>2012-04-18T16:57:35Z</time>
      </trkpt>
      <trkpt lat="59.9359035" lon="17.6464794">
        <ele>36.1868</ele>
        <time>2012-04-18T16:57:40Z</time>
      </trkpt>
      <trkpt lat="59.9362748" lon="17.6469361">
        <ele>35.7061</ele>
        <time>2012-04-18T16:57:47Z</time>
      </trkpt>
      <trkpt lat="59.9366321" lon="17.6474209">
        <ele>35.7061</ele>
        <time>2012-04-18T16:57:53Z</time>
      </trkpt>
      <trkpt lat="59.9370454" lon="17.6479411">
        <ele>35.2255</ele>
        <time>2012-04-18T16:58:00Z</time>
      </trkpt>
      <trkpt lat="59.9373285" lon="17.648314">
        <ele>34.7449</ele>
        <time>2012-04-18T16:58:05Z</time>
      </trkpt>
      <trkpt lat="59.937474" lon="17.6486131">
        <ele>35.7061</ele>
        <time>2012-04-18T16:58:08Z</time>
      </trkpt>
      <trkpt lat="59.9377435" lon="17.6493393">
        <ele>35.2255</ele>
        <time>2012-04-18T16:58:14Z</time>
      </trkpt>
      <trkpt lat="59.9380452" lon="17.6501362">
        <ele>34.7449</ele>
        <time>2012-04-18T16:58:20Z</time>
      </trkpt>
      <trkpt lat="59.938433" lon="17.6511135">
        <ele>34.7449</ele>
        <time>2012-04-18T16:58:27Z</time>
      </trkpt>
      <trkpt lat="59.9387364" lon="17.6520603">
        <ele>35.2255</ele>
        <time>2012-04-18T16:58:34Z</time>
      </trkpt>
      <trkpt lat="59.9390515" lon="17.6532386">
        <ele>35.7061</ele>
        <time>2012-04-18T16:58:43Z</time>
      </trkpt>
      <trkpt lat="59.9392803" lon="17.6542748">
        <ele>36.1868</ele>
        <time>2012-04-18T16:58:51Z</time>
      </trkpt>
      <trkpt lat="59.9395127" lon="17.6554248">
        <ele>36.1868</ele>
        <time>2012-04-18T16:59:00Z</time>
      </trkpt>
      <trkpt lat="59.9397744" lon="17.6567297">
        <ele>35.2255</ele>
        <time>2012-04-18T16:59:10Z</time>
      </trkpt>
      <trkpt lat="59.9400352" lon="17.6580059">
        <ele>33.7834</ele>
        <time>2012-04-18T16:59:19Z</time>
      </trkpt>
      <trkpt lat="59.9403162" lon="17.6593607">
        <ele>33.3029</ele>
        <time>2012-04-18T16:59:28Z</time>
      </trkpt>
      <trkpt lat="59.9403608" lon="17.6596444">
        <ele>33.7834</ele>
        <time>2012-04-18T16:59:30Z</time>
      </trkpt>
      <trkpt lat="59.9405206" lon="17.6602594">
        <ele>33.7834</ele>
        <time>2012-04-18T16:59:35Z</time>
      </trkpt>
      <trkpt lat="59.9404971" lon="17.6607018">
        <ele>32.8223</ele>
        <time>2012-04-18T16:59:38Z</time>
      </trkpt>
      <trkpt lat="59.9403866" lon="17.661269">
        <ele>30.8995</ele>
        <time>2012-04-18T16:59:42Z</time>
      </trkpt>
      <trkpt lat="59.9403889" lon="17.6614119">
        <ele>30.4188</ele>
        <time>2012-04-18T16:59:43Z</time>
      </trkpt>
      <trkpt lat="59.9405391" lon="17.6620135">
        <ele>30.8995</ele>
        <time>2012-04-18T16:59:48Z</time>
      </trkpt>
      <trkpt lat="59.9407251" lon="17.6621454">
        <ele>31.3801</ele>
        <time>2012-04-18T16:59:51Z</time>
      </trkpt>
      <trkpt lat="59.9412043" lon="17.6623269">
        <ele>31.8607</ele>
        <time>2012-04-18T16:59:58Z</time>
      </trkpt>
      <trkpt lat="59.9415296" lon="17.6626872">
        <ele>32.3416</ele>
        <time>2012-04-18T17:00:03Z</time>
      </trkpt>
      <trkpt lat="59.941917" lon="17.6633519">
        <ele>32.8223</ele>
        <time>2012-04-18T17:00:10Z</time>
      </trkpt>
      <trkpt lat="59.9424634" lon="17.6641389">
        <ele>31.8607</ele>
        <time>2012-04-18T17:00:19Z</time>
      </trkpt>
      <trkpt lat="59.9430174" lon="17.6647593">
        <ele>30.8995</ele>
        <time>2012-04-18T17:00:27Z</time>
      </trkpt>
      <trkpt lat="59.9436347" lon="17.665253">
        <ele>29.9381</ele>
        <time>2012-04-18T17:00:35Z</time>
      </trkpt>
      <trkpt lat="59.944222" lon="17.6655778">
        <ele>28.9769</ele>
        <time>2012-04-18T17:00:42Z</time>
      </trkpt>
      <trkpt lat="59.9450137" lon="17.6658828">
        <ele>28.4962</ele>
        <time>2012-04-18T17:00:51Z</time>
      </trkpt>
      <trkpt lat="59.9462288" lon="17.666362">
        <ele>28.4962</ele>
        <time>2012-04-18T17:01:05Z</time>
      </trkpt>
      <trkpt lat="59.9463991" lon="17.6664719">
        <ele>28.0155</ele>
        <time>2012-04-18T17:01:07Z</time>
      </trkpt>
      <trkpt lat="59.9468504" lon="17.6665861">
        <ele>28.0155</ele>
        <time>2012-04-18T17:01:12Z</time>
      </trkpt>
      <trkpt lat="59.9479389" lon="17.6671095">
        <ele>27.5349</ele>
        <time>2012-04-18T17:01:24Z</time>
      </trkpt>
      <trkpt lat="59.9489185" lon="17.6676579">
        <ele>27.0543</ele>
        <time>2012-04-18T17:01:35Z</time>
      </trkpt>
      <trkpt lat="59.9497955" lon="17.6681384">
        <ele>26.5736</ele>
        <time>2012-04-18T17:01:45Z</time>
      </trkpt>
      <trkpt lat="59.9503995" lon="17.6683082">
        <ele>26.5736</ele>
        <time>2012-04-18T17:01:52Z</time>
      </trkpt>
      <trkpt lat="59.9509199" lon="17.6682471">
        <ele>25.6123</ele>
        <time>2012-04-18T17:01:58Z</time>
      </trkpt>
      <trkpt lat="59.9514556" lon="17.6680874">
        <ele>24.1703</ele>
        <time>2012-04-18T17:02:04Z</time>
      </trkpt>
      <trkpt lat="59.9516908" lon="17.6682541">
        <ele>23.6896</ele>
        <time>2012-04-18T17:02:07Z</time>
      </trkpt>
      <trkpt lat="59.951794" lon="17.6686978">
        <ele>23.6896</ele>
        <time>2012-04-18T17:02:10Z</time>
      </trkpt>
      <trkpt lat="59.9518168" lon="17.6691417">
        <ele>24.1703</ele>
        <time>2012-04-18T17:02:13Z</time>
      </trkpt>
      <trkpt lat="59.951753" lon="17.6702459">
        <ele>24.1703</ele>
        <time>2012-04-18T17:02:21Z</time>
      </trkpt>
      <trkpt lat="59.9517108" lon="17.6709138">
        <ele>24.651</ele>
        <time>2012-04-18T17:02:26Z</time>
      </trkpt>
      <trkpt lat="59.9517582" lon="17.6712666">
        <ele>26.0929</ele>
        <time>2012-04-18T17:02:29Z</time>
      </trkpt>
      <trkpt lat="59.9518016" lon="17.6718025">
        <ele>27.0543</ele>
        <time>2012-04-18T17:02:34Z</time>
      </trkpt>
      <trkpt lat="59.9518593" lon="17.6725757">
        <ele>27.5349</ele>
        <time>2012-04-18T17:02:41Z</time>
      </trkpt>
      <trkpt lat="59.9519944" lon="17.6735256">
        <ele>28.4962</ele>
        <time>2012-04-18T17:02:50Z</time>
      </trkpt>
      <trkpt lat="59.9521525" lon="17.6743203">
        <ele>29.9381</ele>
        <time>2012-04-18T17:02:58Z</time>
      </trkpt>
      <trkpt lat="59.952286" lon="17.6750459">
        <ele>31.8607</ele>
        <time>2012-04-18T17:03:06Z</time>
      </trkpt>
      <trkpt lat="59.9524559" lon="17.6755733">
        <ele>30.8995</ele>
        <time>2012-04-18T17:03:13Z</time>
      </trkpt>
      <trkpt lat="59.952689" lon="17.6761818">
        <ele>29.9381</ele>
        <time>2012-04-18T17:03:19Z</time>
      </trkpt>
      <trkpt lat="59.9529908" lon="17.6769674">
        <ele>29.9381</ele>
        <time>2012-04-18T17:03:26Z</time>
      </trkpt>
      <trkpt lat="59.9533407" lon="17.677921">
        <ele>29.9381</ele>
        <time>2012-04-18T17:03:34Z</time>
      </trkpt>
      <trkpt lat="59.9536668" lon="17.678915">
        <ele>28.9769</ele>
        <time>2012-04-18T17:03:42Z</time>
      </trkpt>
      <trkpt lat="59.9540419" lon="17.680052">
        <ele>28.9769</ele>
        <time>2012-04-18T17:03:51Z</time>
      </trkpt>
      <trkpt lat="59.9543706" lon="17.6810335">
        <ele>28.4962</ele>
        <time>2012-04-18T17:03:59Z</time>
      </trkpt>
      <trkpt lat="59.9546419" lon="17.6818345">
        <ele>28.9769</ele>
        <time>2012-04-18T17:04:06Z</time>
      </trkpt>
      <trkpt lat="59.9548496" lon="17.6821713">
        <ele>28.9769</ele>
        <time>2012-04-18T17:04:10Z</time>
      </trkpt>
      <trkpt lat="59.955147" lon="17.6832342">
        <ele>28.9769</ele>
        <time>2012-04-18T17:04:19Z</time>
      </trkpt>
      <trkpt lat="59.9553728" lon="17.6842774">
        <ele>29.4575</ele>
        <time>2012-04-18T17:04:27Z</time>
      </trkpt>
      <trkpt lat="59.9555421" lon="17.685332">
        <ele>30.4188</ele>
        <time>2012-04-18T17:04:35Z</time>
      </trkpt>
      <trkpt lat="59.9557485" lon="17.6867851">
        <ele>31.3801</ele>
        <time>2012-04-18T17:04:46Z</time>
      </trkpt>
      <trkpt lat="59.9558996" lon="17.6877901">
        <ele>31.8607</ele>
        <time>2012-04-18T17:04:54Z</time>
      </trkpt>
      <trkpt lat="59.9560203" lon="17.6885365">
        <ele>31.8607</ele>
        <time>2012-04-18T17:05:00Z</time>
      </trkpt>
      <trkpt lat="59.9561704" lon="17.6890706">
        <ele>32.3416</ele>
        <time>2012-04-18T17:05:05Z</time>
      </trkpt>
      <trkpt lat="59.9563316" lon="17.6898129">
        <ele>33.3029</ele>
        <time>2012-04-18T17:05:12Z</time>
      </trkpt>
      <trkpt lat="59.9565176" lon="17.6904619">
        <ele>33.3029</ele>
        <time>2012-04-18T17:05:18Z</time>
      </trkpt>
      <trkpt lat="59.956802" lon="17.691313">
        <ele>30.8995</ele>
        <time>2012-04-18T17:05:25Z</time>
      </trkpt>
      <trkpt lat="59.957292" lon="17.6927377">
        <ele>29.4575</ele>
        <time>2012-04-18T17:05:35Z</time>
      </trkpt>
      <trkpt lat="59.9577282" lon="17.6939964">
        <ele>29.4575</ele>
        <time>2012-04-18T17:05:44Z</time>
      </trkpt>
      <trkpt lat="59.9582022" lon="17.6953303">
        <ele>29.9381</ele>
        <time>2012-04-18T17:05:54Z</time>
      </trkpt>
      <trkpt lat="59.9586615" lon="17.6965132">
        <ele>30.4188</ele>
        <time>2012-04-18T17:06:03Z</time>
      </trkpt>
      <trkpt lat="59.9588542" lon="17.6972648">
        <ele>30.8995</ele>
        <time>2012-04-18T17:06:08Z</time>
      </trkpt>
      <trkpt lat="59.9589773" lon="17.6981466">
        <ele>32.3416</ele>
        <time>2012-04-18T17:06:14Z</time>
      </trkpt>
      <trkpt lat="59.959002" lon="17.6991485">
        <ele>33.3029</ele>
        <time>2012-04-18T17:06:21Z</time>
      </trkpt>
      <trkpt lat="59.9590811" lon="17.7002506">
        <ele>32.8223</ele>
        <time>2012-04-18T17:06:28Z</time>
      </trkpt>
      <trkpt lat="59.9591977" lon="17.7013078">
        <ele>33.3029</ele>
        <time>2012-04-18T17:06:35Z</time>
      </trkpt>
      <trkpt lat="59.959379" lon="17.7021384">
        <ele>33.7834</ele>
        <time>2012-04-18T17:06:41Z</time>
      </trkpt>
      <trkpt lat="59.9596914" lon="17.7031846">
        <ele>33.3029</ele>
        <time>2012-04-18T17:06:49Z</time>
      </trkpt>
      <trkpt lat="59.959997" lon="17.7040854">
        <ele>32.8223</ele>
        <time>2012-04-18T17:06:56Z</time>
      </trkpt>
      <trkpt lat="59.9602212" lon="17.7044787">
        <ele>32.3416</ele>
        <time>2012-04-18T17:07:00Z</time>
      </trkpt>
      <trkpt lat="59.96082" lon="17.7052184">
        <ele>32.3416</ele>
        <time>2012-04-18T17:07:09Z</time>
      </trkpt>
      <trkpt lat="59.9611785" lon="17.7057899">
        <ele>31.8607</ele>
        <time>2012-04-18T17:07:15Z</time>
      </trkpt>
      <trkpt lat="59.9616639" lon="17.7065729">
        <ele>32.8223</ele>
        <time>2012-04-18T17:07:23Z</time>
      </trkpt>
      <trkpt lat="59.9620629" lon="17.7069181">
        <ele>32.8223</ele>
        <time>2012-04-18T17:07:29Z</time>
      </trkpt>
      <trkpt lat="59.9625323" lon="17.7071385">
        <ele>32.8223</ele>
        <time>2012-04-18T17:07:35Z</time>
      </trkpt>
      <trkpt lat="59.963042" lon="17.7072044">
        <ele>31.8607</ele>
        <time>2012-04-18T17:07:41Z</time>
      </trkpt>
      <trkpt lat="59.9637577" lon="17.7072293">
        <ele>30.8995</ele>
        <time>2012-04-18T17:07:49Z</time>
      </trkpt>
      <trkpt lat="59.964483" lon="17.7074075">
        <ele>30.8995</ele>
        <time>2012-04-18T17:07:57Z</time>
      </trkpt>
      <trkpt lat="59.9650348" lon="17.7077775">
        <ele>30.4188</ele>
        <time>2012-04-18T17:08:03Z</time>
      </trkpt>
      <trkpt lat="59.9655646" lon="17.7082643">
        <ele>29.9381</ele>
        <time>2012-04-18T17:08:09Z</time>
      </trkpt>
      <trkpt lat="59.9658372" lon="17.7087742">
        <ele>29.9381</ele>
        <time>2012-04-18T17:08:13Z</time>
      </trkpt>
      <trkpt lat="59.9662112" lon="17.7100096">
        <ele>29.9381</ele>
        <time>2012-04-18T17:08:21Z</time>
      </trkpt>
      <trkpt lat="59.9665422" lon="17.7111889">
        <ele>30.8995</ele>
        <time>2012-04-18T17:08:29Z</time>
      </trkpt>
      <trkpt lat="59.9668048" lon="17.711993">
        <ele>30.8995</ele>
        <time>2012-04-18T17:08:35Z</time>
      </trkpt>
      <trkpt lat="59.9671555" lon="17.7130895">
        <ele>29.9381</ele>
        <time>2012-04-18T17:08:43Z</time>
      </trkpt>
      <trkpt lat="59.9673036" lon="17.7139189">
        <ele>28.0155</ele>
        <time>2012-04-18T17:08:48Z</time>
      </trkpt>
      <trkpt lat="59.9674819" lon="17.7152537">
        <ele>24.651</ele>
        <time>2012-04-18T17:08:55Z</time>
      </trkpt>
      <trkpt lat="59.967637" lon="17.7159631">
        <ele>25.1317</ele>
        <time>2012-04-18T17:08:59Z</time>
      </trkpt>
      <trkpt lat="59.9678542" lon="17.7165018">
        <ele>27.0543</ele>
        <time>2012-04-18T17:09:03Z</time>
      </trkpt>
      <trkpt lat="59.9681551" lon="17.7169452">
        <ele>28.9769</ele>
        <time>2012-04-18T17:09:08Z</time>
      </trkpt>
      <trkpt lat="59.9685562" lon="17.7172428">
        <ele>30.4188</ele>
        <time>2012-04-18T17:09:14Z</time>
      </trkpt>
      <trkpt lat="59.9688851" lon="17.7173786">
        <ele>30.8995</ele>
        <time>2012-04-18T17:09:19Z</time>
      </trkpt>
      <trkpt lat="59.9695127" lon="17.7176502">
        <ele>29.9381</ele>
        <time>2012-04-18T17:09:28Z</time>
      </trkpt>
      <trkpt lat="59.970035" lon="17.7180549">
        <ele>29.4575</ele>
        <time>2012-04-18T17:09:35Z</time>
      </trkpt>
      <trkpt lat="59.9707202" lon="17.7186619">
        <ele>28.9769</ele>
        <time>2012-04-18T17:09:44Z</time>
      </trkpt>
      <trkpt lat="59.971228" lon="17.7191193">
        <ele>28.9769</ele>
        <time>2012-04-18T17:09:51Z</time>
      </trkpt>
      <trkpt lat="59.9719474" lon="17.7197729">
        <ele>28.9769</ele>
        <time>2012-04-18T17:10:01Z</time>
      </trkpt>
      <trkpt lat="59.9726752" lon="17.7204309">
        <ele>28.4962</ele>
        <time>2012-04-18T17:10:11Z</time>
      </trkpt>
      <trkpt lat="59.9730989" lon="17.7209415">
        <ele>28.4962</ele>
        <time>2012-04-18T17:10:17Z</time>
      </trkpt>
      <trkpt lat="59.9734017" lon="17.7214742">
        <ele>28.0155</ele>
        <time>2012-04-18T17:10:22Z</time>
      </trkpt>
      <trkpt lat="59.9737741" lon="17.7224646">
        <ele>28.0155</ele>
        <time>2012-04-18T17:10:30Z</time>
      </trkpt>
      <trkpt lat="59.9740103" lon="17.7234275">
        <ele>28.0155</ele>
        <time>2012-04-18T17:10:37Z</time>
      </trkpt>
      <trkpt lat="59.9742442" lon="17.725051">
        <ele>28.4962</ele>
        <time>2012-04-18T17:10:48Z</time>
      </trkpt>
      <trkpt lat="59.9743517" lon="17.7261783">
        <ele>28.0155</ele>
        <time>2012-04-18T17:10:56Z</time>
      </trkpt>
      <trkpt lat="59.9743802" lon="17.7273137">
        <ele>26.5736</ele>
        <time>2012-04-18T17:11:04Z</time>
      </trkpt>
      <trkpt lat="59.9744" lon="17.7283816">
        <ele>25.1317</ele>
        <time>2012-04-18T17:11:11Z</time>
      </trkpt>
      <trkpt lat="59.9744139" lon="17.7297051">
        <ele>24.651</ele>
        <time>2012-04-18T17:11:20Z</time>
      </trkpt>
      <trkpt lat="59.9743306" lon="17.7306114">
        <ele>22.7283</ele>
        <time>2012-04-18T17:11:27Z</time>
      </trkpt>
      <trkpt lat="59.9742822" lon="17.7315441">
        <ele>21.2864</ele>
        <time>2012-04-18T17:11:34Z</time>
      </trkpt>
      <trkpt lat="59.9742978" lon="17.7326218">
        <ele>21.767</ele>
        <time>2012-04-18T17:11:42Z</time>
      </trkpt>
      <trkpt lat="59.9742745" lon="17.7335676">
        <ele>21.767</ele>
        <time>2012-04-18T17:11:49Z</time>
      </trkpt>
      <trkpt lat="59.9742409" lon="17.7347151">
        <ele>21.767</ele>
        <time>2012-04-18T17:11:58Z</time>
      </trkpt>
      <trkpt lat="59.9743233" lon="17.7356179">
        <ele>22.7283</ele>
        <time>2012-04-18T17:12:05Z</time>
      </trkpt>
      <trkpt lat="59.9745262" lon="17.7365705">
        <ele>23.209</ele>
        <time>2012-04-18T17:12:13Z</time>
      </trkpt>
      <trkpt lat="59.9748236" lon="17.7374035">
        <ele>24.1703</ele>
        <time>2012-04-18T17:12:21Z</time>
      </trkpt>
      <trkpt lat="59.9751562" lon="17.7380122">
        <ele>24.651</ele>
        <time>2012-04-18T17:12:28Z</time>
      </trkpt>
      <trkpt lat="59.9755025" lon="17.7386182">
        <ele>25.6123</ele>
        <time>2012-04-18T17:12:35Z</time>
      </trkpt>
      <trkpt lat="59.9757478" lon="17.7390653">
        <ele>26.0929</ele>
        <time>2012-04-18T17:12:40Z</time>
      </trkpt>
      <trkpt lat="59.9760171" lon="17.7394455">
        <ele>28.4962</ele>
        <time>2012-04-18T17:12:45Z</time>
      </trkpt>
      <trkpt lat="59.9761922" lon="17.7397018">
        <ele>30.4188</ele>
        <time>2012-04-18T17:12:49Z</time>
      </trkpt>
      <trkpt lat="59.9763976" lon="17.7397429">
        <ele>31.3801</ele>
        <time>2012-04-18T17:12:54Z</time>
      </trkpt>
      <trkpt lat="59.9764836" lon="17.7396626">
        <ele>31.3801</ele>
        <time>2012-04-18T17:12:56Z</time>
      </trkpt>
      <trkpt lat="59.976794" lon="17.739405">
        <ele>31.8607</ele>
        <time>2012-04-18T17:13:03Z</time>
      </trkpt>
      <trkpt lat="59.9771267" lon="17.7392503">
        <ele>34.2642</ele>
        <time>2012-04-18T17:13:11Z</time>
      </trkpt>
      <trkpt lat="59.9775162" lon="17.7390533">
        <ele>36.6675</ele>
        <time>2012-04-18T17:13:20Z</time>
      </trkpt>
      <trkpt lat="59.9777452" lon="17.7390695">
        <ele>38.5901</ele>
        <time>2012-04-18T17:13:26Z</time>
      </trkpt>
      <trkpt lat="59.9780556" lon="17.7392202">
        <ele>40.9934</ele>
        <time>2012-04-18T17:13:34Z</time>
      </trkpt>
      <trkpt lat="59.9783449" lon="17.7393062">
        <ele>43.8773</ele>
        <time>2012-04-18T17:13:41Z</time>
      </trkpt>
      <trkpt lat="59.9785237" lon="17.7393419">
        <ele>44.358</ele>
        <time>2012-04-18T17:13:46Z</time>
      </trkpt>
      <trkpt lat="59.9786886" lon="17.7393624">
        <ele>44.8386</ele>
        <time>2012-04-18T17:13:50Z</time>
      </trkpt>
    </trkseg>
  </trk>
</gpx>